Wetterdaten: Montag, 02.12.2019
Datum Zeit Temp. Aussen Temp. o. S. Temp +5cm Feuchte Auss Luftdruck Regen Sonnenschein Regendauer Solar Windben Empfang
02.12.2019 00:00 0,5 C 0,0 C -0,6 C 95 % 1023,5 hPa 0,0 l/m 0 min 0 min 0 W/m 0,0 km/h (0 Bft) 100,00 %
02.12.2019 00:02 0,6 C 0,0 C -0,6 C 95 % 1023,5 hPa 0,0 l/m 0 min 0 min 0 W/m 0,0 km/h (0 Bft) 96,77 %
02.12.2019 00:04 0,6 C 0,0 C -0,6 C 95 % 1023,5 hPa 0,0 l/m 0 min 0 min 0 W/m 0,0 km/h (0 Bft) 100,00 %
02.12.2019 00:07 0,6 C 0,0 C -0,6 C 95 % 1023,4 hPa 0,0 l/m 0 min 0 min 0 W/m 0,0 km/h (0 Bft) 100,00 %
02.12.2019 00:08 0,6 C 0,0 C -0,6 C 95 % 1023,4 hPa 0,0 l/m 0 min 0 min 0 W/m 0,0 km/h (0 Bft) 100,00 %
02.12.2019 00:10 0,6 C 0,0 C -0,6 C 95 % 1023,4 hPa 0,0 l/m 0 min 0 min 0 W/m 0,0 km/h (0 Bft) 97,87 %
02.12.2019 00:12 0,6 C 0,0 C -0,6 C 95 % 1023,4 hPa 0,0 l/m 0 min 0 min 0 W/m 0,0 km/h (0 Bft) 100,00 %
02.12.2019 00:14 0,6 C 0,0 C -0,6 C 95 % 1023,5 hPa 0,0 l/m 0 min 0 min 0 W/m 0,0 km/h (0 Bft) 97,87 %
02.12.2019 00:16 0,6 C 0,0 C -0,6 C 95 % 1023,5 hPa 0,0 l/m 0 min 0 min 0 W/m 0,0 km/h (0 Bft) 100,00 %
02.12.2019 00:18 0,6 C 0,0 C -0,6 C 95 % 1023,4 hPa 0,0 l/m 0 min 0 min 0 W/m 0,0 km/h (0 Bft) 100,00 %
02.12.2019 00:20 0,6 C 0,0 C -0,6 C 95 % 1023,5 hPa 0,0 l/m 0 min 0 min 0 W/m 0,0 km/h (0 Bft) 97,87 %
02.12.2019 00:22 0,6 C 0,0 C -0,6 C 95 % 1023,5 hPa 0,0 l/m 0 min 0 min 0 W/m 0,0 km/h (0 Bft) 95,65 %
02.12.2019 00:24 0,6 C 0,0 C -0,6 C 95 % 1023,5 hPa 0,0 l/m 0 min 0 min 0 W/m 0,0 km/h (0 Bft) 97,87 %
02.12.2019 00:26 0,6 C 0,0 C -0,6 C 95 % 1023,6 hPa 0,0 l/m 0 min 0 min 0 W/m 6,4 km/h (2 Bft) 97,87 %
02.12.2019 00:28 0,6 C 0,0 C -0,6 C 95 % 1023,7 hPa 0,0 l/m 0 min 0 min 0 W/m 6,4 km/h (2 Bft) 97,87 %
02.12.2019 00:30 0,6 C 0,0 C -0,6 C 95 % 1023,8 hPa 0,0 l/m 0 min 0 min 0 W/m 9,7 km/h (2 Bft) 97,87 %
02.12.2019 00:32 0,6 C 0,0 C -0,6 C 95 % 1023,9 hPa 0,0 l/m 0 min 0 min 0 W/m 9,7 km/h (2 Bft) 97,87 %
02.12.2019 00:34 0,6 C 0,0 C -0,6 C 96 % 1023,7 hPa 0,0 l/m 0 min 0 min 0 W/m 3,2 km/h (1 Bft) 97,83 %
02.12.2019 00:36 0,6 C 0,0 C -0,6 C 96 % 1023,6 hPa 0,0 l/m 0 min 0 min 0 W/m 0,0 km/h (0 Bft) 97,87 %
02.12.2019 00:38 0,6 C 0,0 C -0,6 C 96 % 1023,6 hPa 0,0 l/m 0 min 0 min 0 W/m 0,0 km/h (0 Bft) 95,74 %
02.12.2019 00:40 0,6 C 0,0 C -0,6 C 96 % 1023,8 hPa 0,0 l/m 0 min 0 min 0 W/m 9,7 km/h (2 Bft) 97,87 %
02.12.2019 00:42 0,6 C 0,0 C -0,6 C 96 % 1023,8 hPa 0,0 l/m 0 min 0 min 0 W/m 9,7 km/h (2 Bft) 97,87 %
02.12.2019 00:44 0,6 C 0,0 C -0,6 C 96 % 1023,7 hPa 0,0 l/m 0 min 0 min 0 W/m 0,0 km/h (0 Bft) 95,74 %
02.12.2019 00:46 0,6 C 0,0 C -0,6 C 96 % 1023,6 hPa 0,0 l/m 0 min 0 min 0 W/m 0,0 km/h (0 Bft) 97,83 %
02.12.2019 00:48 0,6 C 0,0 C -0,6 C 96 % 1023,7 hPa 0,0 l/m 0 min 0 min 0 W/m 3,2 km/h (1 Bft) 97,87 %
02.12.2019 00:50 0,6 C 0,0 C -0,6 C 96 % 1023,7 hPa 0,0 l/m 0 min 0 min 0 W/m 0,0 km/h (0 Bft) 95,74 %
02.12.2019 00:52 0,6 C 0,0 C -0,6 C 96 % 1023,7 hPa 0,0 l/m 0 min 0 min 0 W/m 0,0 km/h (0 Bft) 95,74 %
02.12.2019 00:54 0,6 C 0,0 C -0,6 C 96 % 1023,7 hPa 0,0 l/m 0 min 0 min 0 W/m 0,0 km/h (0 Bft) 93,62 %
02.12.2019 00:56 0,6 C 0,0 C -0,6 C 96 % 1023,7 hPa 0,0 l/m 0 min 0 min 0 W/m 0,0 km/h (0 Bft) 93,62 %
02.12.2019 00:58 0,6 C 0,0 C -0,6 C 96 % 1023,7 hPa 0,0 l/m 0 min 0 min 0 W/m 0,0 km/h (0 Bft) 93,48 %
02.12.2019 01:00 0,6 C 0,0 C -0,6 C 96 % 1023,7 hPa 0,0 l/m 0 min 0 min 0 W/m 3,2 km/h (1 Bft) 93,62 %
02.12.2019 01:02 0,6 C 0,0 C -0,6 C 96 % 1023,5 hPa 0,0 l/m 0 min 0 min 0 W/m 0,0 km/h (0 Bft) 95,74 %
02.12.2019 01:04 0,6 C 0,0 C -0,6 C 96 % 1023,6 hPa 0,0 l/m 0 min 0 min 0 W/m 0,0 km/h (0 Bft) 93,62 %
02.12.2019 01:06 0,6 C 0,0 C -0,6 C 96 % 1023,8 hPa 0,0 l/m 0 min 0 min 0 W/m 0,0 km/h (0 Bft) 95,74 %
02.12.2019 01:08 0,6 C 0,0 C -0,6 C 96 % 1023,7 hPa 0,0 l/m 0 min 0 min 0 W/m 0,0 km/h (0 Bft) 95,74 %
02.12.2019 01:10 0,6 C 0,0 C -0,6 C 96 % 1023,6 hPa 0,0 l/m 0 min 0 min 0 W/m 0,0 km/h (0 Bft) 97,83 %
02.12.2019 01:12 0,6 C 0,0 C -0,6 C 96 % 1023,7 hPa 0,0 l/m 0 min 0 min 0 W/m 0,0 km/h (0 Bft) 95,74 %
02.12.2019 01:14 0,6 C 0,0 C -0,6 C 96 % 1023,6 hPa 0,0 l/m 0 min 0 min 0 W/m 0,0 km/h (0 Bft) 93,62 %
02.12.2019 01:16 0,6 C 0,0 C -0,6 C 96 % 1023,5 hPa 0,0 l/m 0 min 0 min 0 W/m 0,0 km/h (0 Bft) 97,87 %
02.12.2019 01:18 0,6 C 0,0 C -0,6 C 96 % 1023,5 hPa 0,0 l/m 0 min 0 min 0 W/m 0,0 km/h (0 Bft) 95,74 %
02.12.2019 01:20 0,6 C 0,0 C -0,6 C 96 % 1023,6 hPa 0,0 l/m 0 min 0 min 0 W/m 0,0 km/h (0 Bft) 95,74 %
02.12.2019 01:22 0,6 C 0,0 C -0,6 C 96 % 1023,6 hPa 0,0 l/m 0 min 0 min 0 W/m 0,0 km/h (0 Bft) 95,65 %
02.12.2019 01:24 0,6 C 0,0 C -0,6 C 96 % 1023,6 hPa 0,0 l/m 0 min 0 min 0 W/m 0,0 km/h (0 Bft) 97,87 %
02.12.2019 01:26 0,6 C -0,6 C -0,6 C 96 % 1023,6 hPa 0,0 l/m 0 min 0 min 0 W/m 0,0 km/h (0 Bft) 97,87 %
02.12.2019 01:28 0,6 C -0,6 C -0,6 C 96 % 1023,7 hPa 0,0 l/m 0 min 0 min 0 W/m 0,0 km/h (0 Bft) 93,62 %
02.12.2019 01:30 0,6 C -0,6 C -0,6 C 96 % 1023,7 hPa 0,0 l/m 0 min 0 min 0 W/m 0,0 km/h (0 Bft) 95,74 %
02.12.2019 01:32 0,6 C -0,6 C -0,6 C 96 % 1023,7 hPa 0,0 l/m 0 min 0 min 0 W/m 0,0 km/h (0 Bft) 95,65 %
02.12.2019 01:34 0,6 C 0,0 C -0,6 C 96 % 1023,7 hPa 0,0 l/m 0 min 0 min 0 W/m 0,0 km/h (0 Bft) 95,74 %
02.12.2019 01:36 0,6 C -0,6 C -0,6 C 96 % 1023,8 hPa 0,0 l/m 0 min 0 min 0 W/m 0,0 km/h (0 Bft) 95,74 %
02.12.2019 01:38 0,6 C -0,6 C -0,6 C 96 % 1023,9 hPa 0,0 l/m 0 min 0 min 0 W/m 3,2 km/h (1 Bft) 95,74 %
02.12.2019 01:40 0,6 C -0,6 C -0,6 C 96 % 1023,9 hPa 0,0 l/m 0 min 0 min 0 W/m 0,0 km/h (0 Bft) 93,62 %
02.12.2019 01:42 0,6 C -0,6 C -0,6 C 96 % 1023,8 hPa 0,0 l/m 0 min 0 min 0 W/m 0,0 km/h (0 Bft) 95,74 %
02.12.2019 01:44 0,6 C 0,0 C -0,6 C 96 % 1023,7 hPa 0,0 l/m 0 min 0 min 0 W/m 0,0 km/h (0 Bft) 95,65 %
02.12.2019 01:46 0,6 C -0,6 C -0,6 C 96 % 1023,8 hPa 0,0 l/m 0 min 0 min 0 W/m 0,0 km/h (0 Bft) 93,62 %
02.12.2019 01:48 0,5 C -0,6 C -0,6 C 96 % 1023,9 hPa 0,0 l/m 0 min 0 min 0 W/m 3,2 km/h (1 Bft) 95,74 %
02.12.2019 01:50 0,5 C -0,6 C -0,6 C 96 % 1023,8 hPa 0,0 l/m 0 min 0 min 0 W/m 0,0 km/h (0 Bft) 95,74 %
02.12.2019 01:52 0,5 C -0,6 C -0,6 C 96 % 1023,7 hPa 0,0 l/m 0 min 0 min 0 W/m 0,0 km/h (0 Bft) 95,74 %
02.12.2019 01:54 0,5 C -0,6 C -0,6 C 96 % 1023,7 hPa 0,0 l/m 0 min 0 min 0 W/m 0,0 km/h (0 Bft) 97,87 %
02.12.2019 01:56 0,5 C -0,6 C -0,6 C 96 % 1023,7 hPa 0,0 l/m 0 min 0 min 0 W/m 0,0 km/h (0 Bft) 97,83 %
02.12.2019 01:58 0,5 C -0,6 C -1,1 C 96 % 1023,7 hPa 0,0 l/m 0 min 0 min 0 W/m 0,0 km/h (0 Bft) 97,87 %
02.12.2019 02:00 0,4 C -0,6 C -1,1 C 96 % 1023,8 hPa 0,0 l/m 0 min 0 min 0 W/m 0,0 km/h (0 Bft) 97,87 %
02.12.2019 02:02 0,4 C -1,1 C -1,1 C 96 % 1023,8 hPa 0,0 l/m 0 min 0 min 0 W/m 0,0 km/h (0 Bft) 93,62 %
02.12.2019 02:04 0,4 C -1,1 C -1,1 C 96 % 1023,8 hPa 0,0 l/m 0 min 0 min 0 W/m 3,2 km/h (1 Bft) 97,87 %
02.12.2019 02:06 0,4 C -1,1 C -1,1 C 96 % 1023,9 hPa 0,0 l/m 0 min 0 min 0 W/m 0,0 km/h (0 Bft) 97,87 %
02.12.2019 02:08 0,4 C -1,1 C -1,1 C 96 % 1023,9 hPa 0,0 l/m 0 min 0 min 0 W/m 0,0 km/h (0 Bft) 97,83 %
02.12.2019 02:10 0,3 C -1,1 C -1,7 C 96 % 1023,9 hPa 0,0 l/m 0 min 0 min 0 W/m 0,0 km/h (0 Bft) 100,00 %
02.12.2019 02:12 0,3 C -1,1 C -1,7 C 96 % 1023,9 hPa 0,0 l/m 0 min 0 min 0 W/m 0,0 km/h (0 Bft) 97,87 %
02.12.2019 02:14 0,3 C -1,1 C -1,7 C 96 % 1023,8 hPa 0,0 l/m 0 min 0 min 0 W/m 0,0 km/h (0 Bft) 100,00 %
02.12.2019 02:16 0,3 C -1,1 C -1,7 C 96 % 1023,8 hPa 0,0 l/m 0 min 0 min 0 W/m 0,0 km/h (0 Bft) 100,00 %
02.12.2019 02:18 0,3 C -1,7 C -1,7 C 96 % 1023,9 hPa 0,0 l/m 0 min 0 min 0 W/m 0,0 km/h (0 Bft) 100,00 %
02.12.2019 02:20 0,2 C -1,7 C -1,7 C 96 % 1024,0 hPa 0,0 l/m 0 min 0 min 0 W/m 0,0 km/h (0 Bft) 97,83 %
02.12.2019 02:22 0,2 C -1,1 C -1,7 C 96 % 1024,0 hPa 0,0 l/m 0 min 0 min 0 W/m 0,0 km/h (0 Bft) 97,87 %
02.12.2019 02:24 0,2 C -1,1 C -1,7 C 96 % 1024,1 hPa 0,0 l/m 0 min 0 min 0 W/m 0,0 km/h (0 Bft) 100,00 %
02.12.2019 02:26 0,2 C -1,1 C -2,2 C 96 % 1024,0 hPa 0,0 l/m 0 min 0 min 0 W/m 0,0 km/h (0 Bft) 100,00 %
02.12.2019 02:28 0,1 C -1,7 C -2,2 C 96 % 1024,1 hPa 0,0 l/m 0 min 0 min 0 W/m 0,0 km/h (0 Bft) 100,00 %
02.12.2019 02:30 0,1 C -1,7 C -2,2 C 96 % 1024,1 hPa 0,0 l/m 0 min 0 min 0 W/m 0,0 km/h (0 Bft) 100,00 %
02.12.2019 02:32 0,1 C -1,7 C -2,2 C 96 % 1024,2 hPa 0,0 l/m 0 min 0 min 0 W/m 0,0 km/h (0 Bft) 100,00 %
02.12.2019 02:34 0,0 C -1,7 C -2,2 C 96 % 1024,2 hPa 0,0 l/m 0 min 0 min 0 W/m 0,0 km/h (0 Bft) 100,00 %
02.12.2019 02:36 0,0 C -1,7 C -2,2 C 96 % 1024,3 hPa 0,0 l/m 0 min 0 min 0 W/m 0,0 km/h (0 Bft) 100,00 %
02.12.2019 02:38 0,0 C -1,7 C -2,2 C 96 % 1024,3 hPa 0,0 l/m 0 min 0 min 0 W/m 0,0 km/h (0 Bft) 97,87 %
02.12.2019 02:40 -0,1 C -1,7 C -2,2 C 96 % 1024,4 hPa 0,0 l/m 0 min 0 min 0 W/m 0,0 km/h (0 Bft) 100,00 %
02.12.2019 02:42 -0,1 C -1,7 C -2,2 C 96 % 1024,4 hPa 0,0 l/m 0 min 0 min 0 W/m 0,0 km/h (0 Bft) 100,00 %
02.12.2019 02:44 -0,1 C -1,7 C -2,2 C 96 % 1024,5 hPa 0,0 l/m 0 min 0 min 0 W/m 0,0 km/h (0 Bft) 97,87 %
02.12.2019 02:46 -0,2 C -1,7 C -2,2 C 96 % 1024,5 hPa 0,0 l/m 0 min 0 min 0 W/m 0,0 km/h (0 Bft) 51,22 %
02.12.2019 02:48 -0,2 C -1,7 C -2,2 C 96 % 1024,6 hPa 0,0 l/m 0 min 0 min 0 W/m 0,0 km/h (0 Bft) 100,00 %
02.12.2019 02:50 -0,2 C -1,7 C -2,2 C 96 % 1024,5 hPa 0,0 l/m 0 min 0 min 0 W/m 0,0 km/h (0 Bft) 100,00 %
02.12.2019 02:52 -0,2 C -1,1 C -2,2 C 96 % 1024,4 hPa 0,0 l/m 0 min 0 min 0 W/m 0,0 km/h (0 Bft) 97,87 %
02.12.2019 02:54 -0,3 C -1,1 C -2,2 C 96 % 1024,4 hPa 0,0 l/m 0 min 0 min 0 W/m 0,0 km/h (0 Bft) 100,00 %
02.12.2019 02:56 -0,3 C -1,1 C -1,7 C 96 % 1024,5 hPa 0,0 l/m 0 min 0 min 0 W/m 0,0 km/h (0 Bft) 100,00 %
02.12.2019 02:58 -0,3 C -1,1 C -1,7 C 96 % 1024,5 hPa 0,0 l/m 0 min 0 min 0 W/m 0,0 km/h (0 Bft) 100,00 %
02.12.2019 03:00 -0,3 C -1,1 C -1,7 C 96 % 1024,6 hPa 0,0 l/m 0 min 0 min 0 W/m 0,0 km/h (0 Bft) 100,00 %
02.12.2019 03:02 -0,3 C -1,1 C -1,7 C 96 % 1024,5 hPa 0,0 l/m 0 min 0 min 0 W/m 0,0 km/h (0 Bft) 100,00 %
02.12.2019 03:04 -0,3 C -1,1 C -1,7 C 96 % 1024,6 hPa 0,0 l/m 0 min 0 min 0 W/m 0,0 km/h (0 Bft) 100,00 %
02.12.2019 03:06 -0,3 C -1,1 C -1,7 C 96 % 1024,6 hPa 0,0 l/m 0 min 0 min 0 W/m 0,0 km/h (0 Bft) 100,00 %
02.12.2019 03:08 -0,3 C -1,1 C -1,7 C 96 % 1024,6 hPa 0,0 l/m 0 min 0 min 0 W/m 0,0 km/h (0 Bft) 100,00 %
02.12.2019 03:10 -0,3 C -1,1 C -1,7 C 96 % 1024,6 hPa 0,0 l/m 0 min 0 min 0 W/m 0,0 km/h (0 Bft) 97,87 %
02.12.2019 03:12 -0,3 C -1,1 C -1,7 C 96 % 1024,6 hPa 0,0 l/m 0 min 0 min 0 W/m 0,0 km/h (0 Bft) 97,87 %
02.12.2019 03:14 -0,3 C -1,1 C -1,7 C 96 % 1024,6 hPa 0,0 l/m 0 min 0 min 0 W/m 0,0 km/h (0 Bft) 95,74 %
02.12.2019 03:16 -0,4 C -1,7 C -1,7 C 96 % 1024,6 hPa 0,0 l/m 0 min 0 min 0 W/m 0,0 km/h (0 Bft) 95,74 %
02.12.2019 03:18 -0,4 C -1,7 C -1,7 C 96 % 1024,6 hPa 0,0 l/m 0 min 0 min 0 W/m 0,0 km/h (0 Bft) 95,65 %
02.12.2019 03:20 -0,4 C -1,1 C -2,2 C 96 % 1024,6 hPa 0,0 l/m 0 min 0 min 0 W/m 0,0 km/h (0 Bft) 97,87 %
02.12.2019 03:22 -0,4 C -1,1 C -2,2 C 96 % 1024,6 hPa 0,0 l/m 0 min 0 min 0 W/m 0,0 km/h (0 Bft) 95,74 %
02.12.2019 03:24 -0,4 C -1,7 C -2,2 C 96 % 1024,6 hPa 0,0 l/m 0 min 0 min 0 W/m 0,0 km/h (0 Bft) 95,74 %
02.12.2019 03:26 -0,4 C -1,7 C -2,2 C 96 % 1024,6 hPa 0,0 l/m 0 min 0 min 0 W/m 0,0 km/h (0 Bft) 97,87 %
02.12.2019 03:28 -0,4 C -1,7 C -2,2 C 96 % 1024,6 hPa 0,0 l/m 0 min 0 min 0 W/m 0,0 km/h (0 Bft) 97,83 %
02.12.2019 03:30 -0,4 C -1,7 C -2,2 C 96 % 1024,6 hPa 0,0 l/m 0 min 0 min 0 W/m 0,0 km/h (0 Bft) 93,62 %
02.12.2019 03:32 -0,4 C -1,7 C -2,2 C 96 % 1024,6 hPa 0,0 l/m 0 min 0 min 0 W/m 0,0 km/h (0 Bft) 95,74 %
02.12.2019 03:34 -0,4 C -1,7 C -2,2 C 96 % 1024,7 hPa 0,0 l/m 0 min 0 min 0 W/m 0,0 km/h (0 Bft) 97,87 %
02.12.2019 03:36 -0,4 C -1,7 C -2,2 C 96 % 1024,6 hPa 0,0 l/m 0 min 0 min 0 W/m 0,0 km/h (0 Bft) 95,74 %
02.12.2019 03:38 -0,4 C -1,7 C -2,2 C 96 % 1024,7 hPa 0,0 l/m 0 min 0 min 0 W/m 0,0 km/h (0 Bft) 95,74 %
02.12.2019 03:40 -0,4 C -1,7 C -2,2 C 96 % 1024,6 hPa 0,0 l/m 0 min 0 min 0 W/m 0,0 km/h (0 Bft) 95,65 %
02.12.2019 03:42 -0,5 C -1,7 C -2,2 C 96 % 1024,6 hPa 0,0 l/m 0 min 0 min 0 W/m 0,0 km/h (0 Bft) 95,74 %
02.12.2019 03:44 -0,5 C -1,7 C -2,2 C 96 % 1024,6 hPa 0,0 l/m 0 min 0 min 0 W/m 0,0 km/h (0 Bft) 95,74 %
02.12.2019 03:46 -0,5 C -1,7 C -2,2 C 96 % 1024,6 hPa 0,0 l/m 0 min 0 min 0 W/m 0,0 km/h (0 Bft) 95,74 %
02.12.2019 03:48 -0,5 C -1,7 C -2,2 C 96 % 1024,6 hPa 0,0 l/m 0 min 0 min 0 W/m 0,0 km/h (0 Bft) 95,74 %
02.12.2019 03:50 -0,5 C -1,7 C -2,2 C 96 % 1024,7 hPa 0,0 l/m 0 min 0 min 0 W/m 0,0 km/h (0 Bft) 93,62 %
02.12.2019 03:52 -0,6 C -1,7 C -2,2 C 96 % 1024,7 hPa 0,0 l/m 0 min 0 min 0 W/m 0,0 km/h (0 Bft) 95,65 %
02.12.2019 03:54 -0,6 C -1,7 C -2,2 C 96 % 1024,7 hPa 0,0 l/m 0 min 0 min 0 W/m 0,0 km/h (0 Bft) 95,74 %
02.12.2019 03:56 -0,6 C -1,7 C -2,2 C 96 % 1024,7 hPa 0,0 l/m 0 min 0 min 0 W/m 0,0 km/h (0 Bft) 93,62 %
02.12.2019 03:58 -0,6 C -1,7 C -2,8 C 96 % 1024,7 hPa 0,0 l/m 0 min 0 min 0 W/m 0,0 km/h (0 Bft) 97,87 %
02.12.2019 04:00 -0,6 C -1,7 C -2,8 C 96 % 1024,7 hPa 0,0 l/m 0 min 0 min 0 W/m 0,0 km/h (0 Bft) 95,74 %
02.12.2019 04:05 -0,6 C -1,7 C -2,8 C 96 % 1024,6 hPa 0,0 l/m 0 min 0 min 0 W/m 0,0 km/h (0 Bft) 95,71 %
02.12.2019 04:06 -0,6 C -2,2 C -2,8 C 96 % 1024,6 hPa 0,0 l/m 0 min 0 min 0 W/m 0,0 km/h (0 Bft) 91,67 %
02.12.2019 04:08 -0,6 C -2,2 C -2,8 C 96 % 1024,5 hPa 0,0 l/m 0 min 0 min 0 W/m 0,0 km/h (0 Bft) 70,21 %
02.12.2019 04:10 -0,7 C -1,7 C -2,8 C 96 % 1024,4 hPa 0,0 l/m 0 min 0 min 0 W/m 0,0 km/h (0 Bft) 83,72 %
02.12.2019 04:12 -0,7 C -1,7 C -2,8 C 96 % 1024,4 hPa 0,0 l/m 0 min 0 min 0 W/m 0,0 km/h (0 Bft) 100,00 %
02.12.2019 04:14 -0,7 C -1,7 C -2,8 C 96 % 1024,4 hPa 0,0 l/m 0 min 0 min 0 W/m 0,0 km/h (0 Bft) 100,00 %
02.12.2019 04:16 -0,7 C -1,7 C -2,8 C 96 % 1024,4 hPa 0,0 l/m 0 min 0 min 0 W/m 0,0 km/h (0 Bft) 100,00 %
02.12.2019 04:18 -0,7 C -1,7 C -2,8 C 96 % 1024,4 hPa 0,0 l/m 0 min 0 min 0 W/m 0,0 km/h (0 Bft) 97,87 %
02.12.2019 04:20 -0,7 C -1,7 C -2,8 C 96 % 1024,4 hPa 0,0 l/m 0 min 0 min 0 W/m 0,0 km/h (0 Bft) 97,87 %
02.12.2019 04:22 -0,8 C -2,2 C -2,8 C 96 % 1024,5 hPa 0,0 l/m 0 min 0 min 0 W/m 0,0 km/h (0 Bft) 97,87 %
02.12.2019 04:24 -0,8 C -2,2 C -2,8 C 96 % 1024,6 hPa 0,0 l/m 0 min 0 min 0 W/m 0,0 km/h (0 Bft) 100,00 %
02.12.2019 04:26 -0,8 C -2,2 C -2,8 C 96 % 1024,6 hPa 0,0 l/m 0 min 0 min 0 W/m 0,0 km/h (0 Bft) 100,00 %
02.12.2019 04:28 -0,8 C -2,2 C -2,8 C 96 % 1024,6 hPa 0,0 l/m 0 min 0 min 0 W/m 0,0 km/h (0 Bft) 100,00 %
02.12.2019 04:30 -0,8 C -2,2 C -2,8 C 96 % 1024,6 hPa 0,0 l/m 0 min 0 min 0 W/m 0,0 km/h (0 Bft) 100,00 %
02.12.2019 04:32 -0,8 C -2,2 C -2,8 C 96 % 1024,6 hPa 0,0 l/m 0 min 0 min 0 W/m 0,0 km/h (0 Bft) 100,00 %
02.12.2019 04:34 -0,9 C -2,2 C -2,8 C 96 % 1024,7 hPa 0,0 l/m 0 min 0 min 0 W/m 0,0 km/h (0 Bft) 100,00 %
02.12.2019 04:36 -0,9 C -2,2 C -2,8 C 96 % 1024,7 hPa 0,0 l/m 0 min 0 min 0 W/m 0,0 km/h (0 Bft) 95,74 %
02.12.2019 04:38 -0,9 C -2,2 C -2,8 C 96 % 1024,7 hPa 0,0 l/m 0 min 0 min 0 W/m 0,0 km/h (0 Bft) 93,48 %
02.12.2019 04:40 -0,9 C -2,2 C -2,8 C 96 % 1024,7 hPa 0,0 l/m 0 min 0 min 0 W/m 0,0 km/h (0 Bft) 100,00 %
02.12.2019 04:42 -0,9 C -2,2 C -2,8 C 96 % 1024,7 hPa 0,0 l/m 0 min 0 min 0 W/m 0,0 km/h (0 Bft) 100,00 %
02.12.2019 04:44 -0,9 C -2,2 C -2,8 C 96 % 1024,7 hPa 0,0 l/m 0 min 0 min 0 W/m 0,0 km/h (0 Bft) 100,00 %
02.12.2019 04:46 -1,0 C -2,2 C -2,8 C 96 % 1024,8 hPa 0,0 l/m 0 min 0 min 0 W/m 0,0 km/h (0 Bft) 97,87 %
02.12.2019 04:48 -1,0 C -1,7 C -2,2 C 96 % 1024,8 hPa 0,0 l/m 0 min 0 min 0 W/m 3,2 km/h (1 Bft) 65,96 %
02.12.2019 04:50 -1,0 C -1,7 C -2,2 C 96 % 1024,8 hPa 0,0 l/m 0 min 0 min 0 W/m 3,2 km/h (1 Bft) 86,49 %
02.12.2019 04:52 -1,0 C -1,7 C -1,7 C 96 % 1024,9 hPa 0,0 l/m 0 min 0 min 0 W/m 3,2 km/h (1 Bft) 97,87 %
02.12.2019 04:54 -1,0 C -1,7 C -1,7 C 96 % 1024,9 hPa 0,0 l/m 0 min 0 min 0 W/m 0,0 km/h (0 Bft) 97,87 %
02.12.2019 04:56 -0,9 C -1,7 C -1,7 C 96 % 1024,9 hPa 0,0 l/m 0 min 0 min 0 W/m 3,2 km/h (1 Bft) 97,87 %
02.12.2019 04:58 -0,9 C -1,1 C -1,7 C 96 % 1024,9 hPa 0,0 l/m 0 min 0 min 0 W/m 6,4 km/h (2 Bft) 95,74 %
02.12.2019 05:00 -0,9 C -1,1 C -1,7 C 96 % 1024,9 hPa 0,0 l/m 0 min 0 min 0 W/m 6,4 km/h (2 Bft) 97,83 %
02.12.2019 05:02 -0,8 C -1,1 C -1,7 C 96 % 1024,9 hPa 0,0 l/m 0 min 0 min 0 W/m 0,0 km/h (0 Bft) 95,74 %
02.12.2019 05:04 -0,8 C -1,1 C -1,7 C 96 % 1024,9 hPa 0,0 l/m 0 min 0 min 0 W/m 0,0 km/h (0 Bft) 95,74 %
02.12.2019 05:06 -0,8 C -1,1 C -1,7 C 96 % 1024,9 hPa 0,0 l/m 0 min 0 min 0 W/m 0,0 km/h (0 Bft) 97,87 %
02.12.2019 05:08 -0,8 C -1,1 C -1,7 C 96 % 1024,8 hPa 0,0 l/m 0 min 0 min 0 W/m 3,2 km/h (1 Bft) 97,87 %
02.12.2019 05:10 -0,7 C -1,1 C -1,7 C 96 % 1024,9 hPa 0,0 l/m 0 min 0 min 0 W/m 6,4 km/h (2 Bft) 97,87 %
02.12.2019 05:12 -0,7 C -1,1 C -1,7 C 97 % 1024,9 hPa 0,0 l/m 0 min 0 min 0 W/m 9,7 km/h (2 Bft) 97,83 %
02.12.2019 05:14 -0,7 C -1,1 C -1,7 C 97 % 1024,9 hPa 0,0 l/m 0 min 0 min 0 W/m 6,4 km/h (2 Bft) 95,74 %
02.12.2019 05:16 -0,6 C -1,1 C -1,7 C 97 % 1024,9 hPa 0,0 l/m 0 min 0 min 0 W/m 9,7 km/h (2 Bft) 97,87 %
02.12.2019 05:18 -0,6 C -1,1 C -1,7 C 97 % 1024,9 hPa 0,0 l/m 0 min 0 min 0 W/m 6,4 km/h (2 Bft) 97,87 %
02.12.2019 05:20 -0,6 C -1,1 C -1,7 C 97 % 1024,9 hPa 0,0 l/m 0 min 0 min 0 W/m 6,4 km/h (2 Bft) 97,87 %
02.12.2019 05:22 -0,6 C -1,1 C -1,7 C 97 % 1024,9 hPa 0,0 l/m 0 min 0 min 0 W/m 0,0 km/h (0 Bft) 97,87 %
02.12.2019 05:24 -0,6 C -1,1 C -1,7 C 97 % 1024,9 hPa 0,0 l/m 0 min 0 min 0 W/m 3,2 km/h (1 Bft) 97,83 %
02.12.2019 05:26 -0,5 C -1,1 C -1,7 C 97 % 1024,9 hPa 0,0 l/m 0 min 0 min 0 W/m 3,2 km/h (1 Bft) 95,74 %
02.12.2019 05:28 -0,5 C -1,1 C -1,7 C 97 % 1024,9 hPa 0,0 l/m 0 min 0 min 0 W/m 3,2 km/h (1 Bft) 97,87 %
02.12.2019 05:30 -0,5 C -1,1 C -1,1 C 97 % 1025,0 hPa 0,0 l/m 0 min 0 min 0 W/m 0,0 km/h (0 Bft) 95,74 %
02.12.2019 05:32 -0,5 C -1,1 C -1,1 C 97 % 1025,0 hPa 0,0 l/m 0 min 0 min 0 W/m 0,0 km/h (0 Bft) 97,87 %
02.12.2019 05:34 -0,4 C -1,1 C -1,1 C 97 % 1025,1 hPa 0,0 l/m 0 min 0 min 0 W/m 0,0 km/h (0 Bft) 95,74 %
02.12.2019 05:36 -0,4 C -1,1 C -1,1 C 97 % 1025,1 hPa 0,0 l/m 0 min 0 min 0 W/m 3,2 km/h (1 Bft) 95,65 %
02.12.2019 05:38 -0,4 C -1,1 C -1,1 C 97 % 1025,1 hPa 0,0 l/m 0 min 0 min 0 W/m 3,2 km/h (1 Bft) 95,74 %
02.12.2019 05:40 -0,4 C -1,1 C -1,1 C 97 % 1025,1 hPa 0,0 l/m 0 min 0 min 0 W/m 0,0 km/h (0 Bft) 95,74 %
02.12.2019 05:42 -0,4 C -1,1 C -1,1 C 97 % 1025,1 hPa 0,0 l/m 0 min 0 min 0 W/m 3,2 km/h (1 Bft) 97,87 %
02.12.2019 05:44 -0,4 C -1,1 C -1,1 C 97 % 1025,2 hPa 0,0 l/m 0 min 0 min 0 W/m 0,0 km/h (0 Bft) 95,74 %
02.12.2019 05:46 -0,4 C -1,1 C -1,1 C 97 % 1025,1 hPa 0,0 l/m 0 min 0 min 0 W/m 0,0 km/h (0 Bft) 95,65 %
02.12.2019 05:48 -0,4 C -1,1 C -1,1 C 97 % 1025,1 hPa 0,0 l/m 0 min 0 min 0 W/m 3,2 km/h (1 Bft) 95,74 %
02.12.2019 05:50 -0,3 C -1,1 C -1,1 C 97 % 1025,2 hPa 0,0 l/m 0 min 0 min 0 W/m 6,4 km/h (2 Bft) 93,62 %
02.12.2019 05:52 -0,3 C -1,1 C -1,1 C 97 % 1025,2 hPa 0,0 l/m 0 min 0 min 0 W/m 0,0 km/h (0 Bft) 95,74 %
02.12.2019 05:54 -0,3 C -1,1 C -1,1 C 97 % 1025,2 hPa 0,0 l/m 0 min 0 min 0 W/m 0,0 km/h (0 Bft) 95,74 %
02.12.2019 05:56 -0,3 C -1,1 C -1,1 C 97 % 1025,2 hPa 0,0 l/m 0 min 0 min 0 W/m 3,2 km/h (1 Bft) 95,74 %
02.12.2019 05:58 -0,3 C -1,1 C -1,1 C 97 % 1025,3 hPa 0,0 l/m 0 min 0 min 0 W/m 0,0 km/h (0 Bft) 97,83 %
02.12.2019 06:00 -0,3 C -1,1 C -1,1 C 97 % 1025,2 hPa 0,0 l/m 0 min 0 min 0 W/m 3,2 km/h (1 Bft) 95,74 %
02.12.2019 06:02 -0,3 C -1,1 C -1,1 C 97 % 1025,3 hPa 0,0 l/m 0 min 0 min 0 W/m 3,2 km/h (1 Bft) 93,62 %
02.12.2019 06:04 -0,2 C -1,1 C -1,1 C 97 % 1025,3 hPa 0,0 l/m 0 min 0 min 0 W/m 3,2 km/h (1 Bft) 91,49 %
02.12.2019 06:08 -0,2 C -1,1 C -1,1 C 97 % 1025,3 hPa 0,0 l/m 0 min 0 min 0 W/m 6,4 km/h (2 Bft) 94,06 %
02.12.2019 06:10 -0,2 C -0,6 C -1,1 C 97 % 1025,3 hPa 0,0 l/m 0 min 0 min 0 W/m 0,0 km/h (0 Bft) 93,62 %
02.12.2019 06:12 -0,2 C -0,6 C -1,1 C 97 % 1025,2 hPa 0,0 l/m 0 min 0 min 0 W/m 0,0 km/h (0 Bft) 95,74 %
02.12.2019 06:14 -0,2 C -0,6 C -1,1 C 98 % 1025,2 hPa 0,0 l/m 0 min 0 min 0 W/m 0,0 km/h (0 Bft) 93,62 %
02.12.2019 06:16 -0,2 C -0,6 C -1,1 C 98 % 1025,2 hPa 0,0 l/m 0 min 0 min 0 W/m 3,2 km/h (1 Bft) 95,74 %
02.12.2019 06:18 -0,2 C -0,6 C -1,1 C 98 % 1025,2 hPa 0,0 l/m 0 min 0 min 0 W/m 0,0 km/h (0 Bft) 93,62 %
02.12.2019 06:20 -0,2 C -0,6 C -1,1 C 98 % 1025,3 hPa 0,0 l/m 0 min 0 min 0 W/m 3,2 km/h (1 Bft) 95,65 %
02.12.2019 06:22 -0,1 C -0,6 C -1,1 C 98 % 1025,3 hPa 0,0 l/m 0 min 0 min 0 W/m 3,2 km/h (1 Bft) 91,49 %
02.12.2019 06:24 -0,1 C -0,6 C -1,1 C 98 % 1025,4 hPa 0,0 l/m 0 min 0 min 0 W/m 0,0 km/h (0 Bft) 95,74 %
02.12.2019 06:26 -0,1 C -0,6 C -1,1 C 98 % 1025,3 hPa 0,0 l/m 0 min 0 min 0 W/m 3,2 km/h (1 Bft) 95,74 %
02.12.2019 06:28 -0,1 C -0,6 C -1,1 C 98 % 1025,3 hPa 0,0 l/m 0 min 0 min 0 W/m 0,0 km/h (0 Bft) 91,49 %
02.12.2019 06:30 -0,1 C -0,6 C -1,1 C 98 % 1025,4 hPa 0,0 l/m 0 min 0 min 0 W/m 0,0 km/h (0 Bft) 95,74 %
02.12.2019 06:32 -0,1 C -0,6 C -1,1 C 98 % 1025,4 hPa 0,0 l/m 0 min 0 min 0 W/m 0,0 km/h (0 Bft) 95,65 %
02.12.2019 06:34 -0,1 C -0,6 C -1,1 C 98 % 1025,4 hPa 0,0 l/m 0 min 0 min 0 W/m 3,2 km/h (1 Bft) 97,87 %
02.12.2019 06:36 -0,1 C -0,6 C -1,1 C 98 % 1025,5 hPa 0,0 l/m 0 min 0 min 0 W/m 0,0 km/h (0 Bft) 100,00 %
02.12.2019 06:38 -0,1 C -0,6 C -1,1 C 98 % 1025,5 hPa 0,0 l/m 0 min 0 min 0 W/m 3,2 km/h (1 Bft) 100,00 %
02.12.2019 06:40 0,0 C -0,6 C -1,1 C 98 % 1025,5 hPa 0,0 l/m 0 min 0 min 0 W/m 0,0 km/h (0 Bft) 100,00 %
02.12.2019 06:42 0,0 C -0,6 C -1,1 C 98 % 1025,4 hPa 0,0 l/m 0 min 0 min 0 W/m 6,4 km/h (2 Bft) 97,87 %
02.12.2019 06:44 0,0 C -0,6 C -1,1 C 98 % 1025,4 hPa 0,0 l/m 0 min 0 min 0 W/m 0,0 km/h (0 Bft) 100,00 %
02.12.2019 06:46 0,0 C -0,6 C -1,1 C 98 % 1025,4 hPa 0,0 l/m 0 min 0 min 0 W/m 3,2 km/h (1 Bft) 97,87 %
02.12.2019 06:48 0,0 C -0,6 C -1,1 C 98 % 1025,5 hPa 0,0 l/m 0 min 0 min 0 W/m 3,2 km/h (1 Bft) 97,87 %
02.12.2019 06:50 0,0 C -0,6 C -1,1 C 98 % 1025,5 hPa 0,0 l/m 0 min 0 min 0 W/m 3,2 km/h (1 Bft) 100,00 %
02.12.2019 06:52 0,0 C -0,6 C -1,1 C 98 % 1025,4 hPa 0,0 l/m 0 min 0 min 0 W/m 3,2 km/h (1 Bft) 100,00 %
02.12.2019 06:54 0,0 C -0,6 C -1,1 C 98 % 1025,5 hPa 0,0 l/m 0 min 0 min 0 W/m 0,0 km/h (0 Bft) 97,83 %
02.12.2019 06:56 0,0 C -0,6 C -1,1 C 98 % 1025,5 hPa 0,0 l/m 0 min 0 min 0 W/m 6,4 km/h (2 Bft) 97,87 %
02.12.2019 06:58 0,0 C -0,6 C -1,1 C 98 % 1025,5 hPa 0,0 l/m 0 min 0 min 0 W/m 6,4 km/h (2 Bft) 100,00 %
02.12.2019 07:00 0,0 C -0,6 C -1,1 C 98 % 1025,4 hPa 0,0 l/m 0 min 0 min 0 W/m 3,2 km/h (1 Bft) 100,00 %
02.12.2019 07:02 0,0 C -0,6 C -1,1 C 98 % 1025,5 hPa 0,0 l/m 0 min 0 min 0 W/m 0,0 km/h (0 Bft) 100,00 %
02.12.2019 07:04 0,0 C -0,6 C -1,1 C 98 % 1025,5 hPa 0,0 l/m 0 min 0 min 0 W/m 3,2 km/h (1 Bft) 100,00 %
02.12.2019 07:06 0,0 C -0,6 C -1,1 C 98 % 1025,5 hPa 0,0 l/m 0 min 0 min 0 W/m 3,2 km/h (1 Bft) 100,00 %
02.12.2019 07:08 0,0 C -0,6 C -1,1 C 98 % 1025,6 hPa 0,0 l/m 0 min 0 min 0 W/m 6,4 km/h (2 Bft) 100,00 %
02.12.2019 07:10 0,0 C -0,6 C -1,1 C 98 % 1025,6 hPa 0,0 l/m 0 min 0 min 0 W/m 0,0 km/h (0 Bft) 100,00 %
02.12.2019 07:12 0,0 C -0,6 C -1,1 C 98 % 1025,6 hPa 0,0 l/m 0 min 0 min 0 W/m 3,2 km/h (1 Bft) 100,00 %
02.12.2019 07:14 0,0 C -0,6 C -1,1 C 98 % 1025,6 hPa 0,0 l/m 0 min 0 min 0 W/m 3,2 km/h (1 Bft) 100,00 %
02.12.2019 07:16 0,0 C -0,6 C -0,6 C 98 % 1025,6 hPa 0,0 l/m 0 min 0 min 0 W/m 0,0 km/h (0 Bft) 100,00 %
02.12.2019 07:18 0,0 C -0,6 C -0,6 C 98 % 1025,6 hPa 0,0 l/m 0 min 0 min 0 W/m 0,0 km/h (0 Bft) 100,00 %
02.12.2019 07:20 0,0 C -0,6 C -0,6 C 98 % 1025,6 hPa 0,0 l/m 0 min 0 min 0 W/m 0,0 km/h (0 Bft) 100,00 %
02.12.2019 07:22 0,0 C -0,6 C -0,6 C 98 % 1025,6 hPa 0,0 l/m 0 min 0 min 0 W/m 3,2 km/h (1 Bft) 100,00 %
02.12.2019 07:24 0,0 C -0,6 C -0,6 C 98 % 1025,6 hPa 0,0 l/m 0 min 0 min 0 W/m 0,0 km/h (0 Bft) 97,87 %
02.12.2019 07:26 0,1 C -0,6 C -0,6 C 98 % 1025,6 hPa 0,0 l/m 0 min 0 min 0 W/m 0,0 km/h (0 Bft) 100,00 %
02.12.2019 07:28 0,1 C -0,6 C -0,6 C 98 % 1025,6 hPa 0,0 l/m 0 min 0 min 0 W/m 6,4 km/h (2 Bft) 100,00 %
02.12.2019 07:30 0,1 C -0,6 C -0,6 C 98 % 1025,6 hPa 0,0 l/m 0 min 0 min 0 W/m 0,0 km/h (0 Bft) 100,00 %
02.12.2019 07:32 0,1 C -0,6 C -0,6 C 98 % 1025,5 hPa 0,0 l/m 0 min 0 min 0 W/m 3,2 km/h (1 Bft) 93,62 %
02.12.2019 07:34 0,1 C -0,6 C -0,6 C 98 % 1025,6 hPa 0,0 l/m 0 min 0 min 0 W/m 3,2 km/h (1 Bft) 100,00 %
02.12.2019 07:36 0,1 C -0,6 C -0,6 C 98 % 1025,7 hPa 0,0 l/m 0 min 0 min 0 W/m 3,2 km/h (1 Bft) 100,00 %
02.12.2019 07:38 0,1 C -0,6 C -0,6 C 98 % 1025,7 hPa 0,0 l/m 0 min 0 min 0 W/m 0,0 km/h (0 Bft) 100,00 %
02.12.2019 07:40 0,1 C -0,6 C -0,6 C 98 % 1025,6 hPa 0,0 l/m 0 min 0 min 0 W/m 0,0 km/h (0 Bft) 100,00 %
02.12.2019 07:42 0,2 C -0,6 C -0,6 C 98 % 1025,7 hPa 0,0 l/m 0 min 0 min 0 W/m 0,0 km/h (0 Bft) 100,00 %
02.12.2019 07:44 0,2 C -0,6 C -0,6 C 98 % 1025,7 hPa 0,0 l/m 0 min 0 min 0 W/m 0,0 km/h (0 Bft) 100,00 %
02.12.2019 07:46 0,2 C 0,0 C -0,6 C 98 % 1025,6 hPa 0,0 l/m 0 min 0 min 0 W/m 3,2 km/h (1 Bft) 100,00 %
02.12.2019 07:48 0,2 C 0,0 C -0,6 C 98 % 1025,6 hPa 0,0 l/m 0 min 0 min 0 W/m 3,2 km/h (1 Bft) 100,00 %
02.12.2019 07:50 0,2 C 0,0 C -0,6 C 98 % 1025,6 hPa 0,0 l/m 0 min 0 min 0 W/m 3,2 km/h (1 Bft) 97,87 %
02.12.2019 07:52 0,3 C 0,0 C -0,6 C 98 % 1025,6 hPa 0,0 l/m 0 min 0 min 0 W/m 3,2 km/h (1 Bft) 100,00 %
02.12.2019 07:54 0,3 C 0,0 C -0,6 C 98 % 1025,6 hPa 0,0 l/m 0 min 0 min 0 W/m 0,0 km/h (0 Bft) 97,87 %
02.12.2019 07:56 0,3 C 0,0 C -0,6 C 98 % 1025,5 hPa 0,0 l/m 0 min 0 min 0 W/m 0,0 km/h (0 Bft) 100,00 %
02.12.2019 07:58 0,3 C 0,0 C -0,6 C 98 % 1025,6 hPa 0,0 l/m 0 min 0 min 0 W/m 0,0 km/h (0 Bft) 100,00 %
02.12.2019 08:00 0,3 C 0,0 C -0,6 C 98 % 1025,7 hPa 0,0 l/m 0 min 0 min 0 W/m 0,0 km/h (0 Bft) 97,87 %
02.12.2019 08:02 0,3 C 0,0 C -0,6 C 98 % 1025,7 hPa 0,0 l/m 0 min 0 min 0 W/m 0,0 km/h (0 Bft) 100,00 %
02.12.2019 08:04 0,3 C 0,0 C -0,6 C 98 % 1025,7 hPa 0,0 l/m 0 min 0 min 0 W/m 0,0 km/h (0 Bft) 100,00 %
02.12.2019 08:06 0,4 C 0,0 C -0,6 C 98 % 1025,7 hPa 0,0 l/m 0 min 0 min 0 W/m 0,0 km/h (0 Bft) 97,87 %
02.12.2019 08:08 0,4 C 0,0 C -0,6 C 98 % 1025,7 hPa 0,0 l/m 0 min 0 min 0 W/m 0,0 km/h (0 Bft) 100,00 %
02.12.2019 08:10 0,4 C 0,0 C -0,6 C 98 % 1025,7 hPa 0,0 l/m 0 min 0 min 0 W/m 6,4 km/h (2 Bft) 100,00 %
02.12.2019 08:12 0,4 C 0,0 C -0,6 C 98 % 1025,7 hPa 0,0 l/m 0 min 0 min 0 W/m 3,2 km/h (1 Bft) 100,00 %
02.12.2019 08:14 0,4 C 0,0 C -0,6 C 98 % 1025,7 hPa 0,0 l/m 0 min 0 min 0 W/m 0,0 km/h (0 Bft) 95,74 %
02.12.2019 08:16 0,4 C 0,0 C -0,6 C 98 % 1025,8 hPa 0,0 l/m 0 min 0 min 3 W/m 3,2 km/h (1 Bft) 100,00 %
02.12.2019 08:18 0,5 C 0,0 C -0,6 C 98 % 1025,8 hPa 0,0 l/m 0 min 0 min 5 W/m 0,0 km/h (0 Bft) 95,74 %
02.12.2019 08:20 0,5 C 0,0 C -0,6 C 98 % 1025,8 hPa 0,0 l/m 0 min 0 min 5 W/m 6,4 km/h (2 Bft) 100,00 %
02.12.2019 08:22 0,5 C 0,0 C -0,6 C 98 % 1025,9 hPa 0,0 l/m 0 min 0 min 5 W/m 0,0 km/h (0 Bft) 97,87 %
02.12.2019 08:24 0,6 C 0,0 C -0,6 C 98 % 1026,0 hPa 0,0 l/m 0 min 0 min 5 W/m 0,0 km/h (0 Bft) 91,49 %
02.12.2019 08:26 0,6 C 0,0 C -0,6 C 98 % 1025,9 hPa 0,0 l/m 0 min 0 min 7 W/m 0,0 km/h (0 Bft) 93,48 %
02.12.2019 08:28 0,6 C 0,0 C -0,6 C 98 % 1025,9 hPa 0,0 l/m 0 min 0 min 8 W/m 0,0 km/h (0 Bft) 95,74 %
02.12.2019 08:30 0,6 C 0,0 C -0,6 C 98 % 1025,9 hPa 0,0 l/m 0 min 0 min 10 W/m 0,0 km/h (0 Bft) 95,74 %
02.12.2019 08:32 0,6 C 0,0 C -0,6 C 98 % 1026,0 hPa 0,0 l/m 0 min 0 min 11 W/m 0,0 km/h (0 Bft) 93,62 %
02.12.2019 08:34 0,6 C 0,0 C -0,6 C 98 % 1026,0 hPa 0,0 l/m 0 min 0 min 12 W/m 0,0 km/h (0 Bft) 93,62 %
02.12.2019 08:36 0,6 C 0,0 C -0,6 C 98 % 1026,1 hPa 0,0 l/m 0 min 0 min 12 W/m 0,0 km/h (0 Bft) 93,62 %
02.12.2019 08:38 0,6 C 0,0 C -0,6 C 98 % 1026,0 hPa 0,0 l/m 0 min 0 min 12 W/m 0,0 km/h (0 Bft) 91,30 %
02.12.2019 08:40 0,6 C 0,0 C -0,6 C 98 % 1026,1 hPa 0,0 l/m 0 min 0 min 13 W/m 0,0 km/h (0 Bft) 93,62 %
02.12.2019 08:42 0,6 C -0,6 C -0,6 C 99 % 1026,1 hPa 0,0 l/m 0 min 0 min 15 W/m 0,0 km/h (0 Bft) 91,49 %
02.12.2019 08:44 0,6 C 0,0 C -0,6 C 99 % 1026,1 hPa 0,0 l/m 0 min 0 min 16 W/m 0,0 km/h (0 Bft) 93,62 %
02.12.2019 08:46 0,6 C -0,6 C -0,6 C 99 % 1026,1 hPa 0,0 l/m 0 min 0 min 18 W/m 3,2 km/h (1 Bft) 91,49 %
02.12.2019 08:48 0,6 C 0,0 C -0,6 C 99 % 1026,2 hPa 0,0 l/m 0 min 0 min 19 W/m 6,4 km/h (2 Bft) 93,62 %
02.12.2019 08:50 0,6 C 0,0 C -0,6 C 99 % 1026,2 hPa 0,0 l/m 0 min 0 min 21 W/m 0,0 km/h (0 Bft) 93,48 %
02.12.2019 08:52 0,6 C 0,0 C -0,6 C 99 % 1026,2 hPa 0,0 l/m 0 min 0 min 20 W/m 0,0 km/h (0 Bft) 93,62 %
02.12.2019 08:54 0,6 C 0,0 C -0,6 C 99 % 1026,2 hPa 0,0 l/m 0 min 0 min 19 W/m 0,0 km/h (0 Bft) 93,62 %
02.12.2019 08:56 0,6 C 0,0 C -0,6 C 99 % 1026,3 hPa 0,0 l/m 0 min 0 min 19 W/m 3,2 km/h (1 Bft) 91,49 %
02.12.2019 08:58 0,6 C 0,0 C -0,6 C 99 % 1026,3 hPa 0,0 l/m 0 min 0 min 19 W/m 0,0 km/h (0 Bft) 91,49 %
02.12.2019 09:00 0,6 C 0,0 C -0,6 C 99 % 1026,3 hPa 0,0 l/m 0 min 0 min 20 W/m 3,2 km/h (1 Bft) 95,74 %
02.12.2019 09:02 0,6 C 0,0 C -0,6 C 99 % 1026,3 hPa 0,0 l/m 0 min 0 min 21 W/m 0,0 km/h (0 Bft) 89,13 %
02.12.2019 09:04 0,6 C 0,0 C -0,6 C 99 % 1026,3 hPa 0,0 l/m 0 min 0 min 21 W/m 0,0 km/h (0 Bft) 93,62 %
02.12.2019 09:06 0,6 C 0,0 C -0,6 C 99 % 1026,2 hPa 0,0 l/m 0 min 0 min 19 W/m 0,0 km/h (0 Bft) 93,62 %
02.12.2019 09:08 0,6 C 0,0 C -0,6 C 98 % 1026,3 hPa 0,0 l/m 0 min 0 min 19 W/m 0,0 km/h (0 Bft) 93,62 %
02.12.2019 09:10 0,6 C 0,0 C -0,6 C 98 % 1026,4 hPa 0,0 l/m 0 min 0 min 21 W/m 0,0 km/h (0 Bft) 95,74 %
02.12.2019 09:12 0,6 C 0,0 C -0,6 C 98 % 1026,3 hPa 0,0 l/m 0 min 0 min 25 W/m 0,0 km/h (0 Bft) 95,74 %
02.12.2019 09:14 0,6 C 0,0 C -0,6 C 98 % 1026,3 hPa 0,0 l/m 0 min 0 min 27 W/m 0,0 km/h (0 Bft) 97,83 %
02.12.2019 09:16 0,6 C 0,0 C -0,6 C 99 % 1026,4 hPa 0,0 l/m 0 min 0 min 30 W/m 0,0 km/h (0 Bft) 93,62 %
02.12.2019 09:18 0,6 C 0,0 C -0,6 C 99 % 1026,4 hPa 0,0 l/m 0 min 0 min 33 W/m 3,2 km/h (1 Bft) 97,87 %
02.12.2019 09:20 0,6 C 0,6 C 0,0 C 99 % 1026,4 hPa 0,0 l/m 0 min 0 min 35 W/m 3,2 km/h (1 Bft) 97,87 %
02.12.2019 09:22 0,6 C 0,6 C 0,0 C 99 % 1026,4 hPa 0,0 l/m 0 min 0 min 35 W/m 3,2 km/h (1 Bft) 97,87 %
02.12.2019 09:24 0,6 C 0,6 C 0,0 C 99 % 1026,4 hPa 0,0 l/m 0 min 0 min 33 W/m 3,2 km/h (1 Bft) 97,83 %
02.12.2019 09:26 0,6 C 0,6 C 0,0 C 99 % 1026,4 hPa 0,0 l/m 0 min 0 min 39 W/m 0,0 km/h (0 Bft) 97,87 %
02.12.2019 09:28 0,6 C 0,6 C 0,0 C 99 % 1026,5 hPa 0,0 l/m 0 min 0 min 47 W/m 0,0 km/h (0 Bft) 53,19 %
02.12.2019 09:30 0,6 C 0,6 C 0,0 C 99 % 1026,5 hPa 0,0 l/m 0 min 0 min 46 W/m 3,2 km/h (1 Bft) 97,87 %
02.12.2019 09:32 0,6 C 0,6 C 0,0 C 99 % 1026,5 hPa 0,0 l/m 0 min 0 min 30 W/m 3,2 km/h (1 Bft) 100,00 %
02.12.2019 09:34 0,7 C 0,6 C 0,0 C 99 % 1026,5 hPa 0,0 l/m 0 min 0 min 33 W/m 3,2 km/h (1 Bft) 100,00 %
02.12.2019 09:36 0,7 C 0,6 C 0,0 C 99 % 1026,5 hPa 0,0 l/m 0 min 0 min 42 W/m 0,0 km/h (0 Bft) 100,00 %
02.12.2019 09:38 0,7 C 0,6 C 0,0 C 99 % 1026,5 hPa 0,0 l/m 0 min 0 min 67 W/m 0,0 km/h (0 Bft) 97,87 %
02.12.2019 09:40 0,7 C 1,1 C 0,0 C 99 % 1026,6 hPa 0,0 l/m 2 min 0 min 85 W/m 0,0 km/h (0 Bft) 97,87 %
02.12.2019 09:42 0,7 C 1,1 C 0,0 C 99 % 1026,6 hPa 0,0 l/m 2 min 0 min 86 W/m 0,0 km/h (0 Bft) 100,00 %
02.12.2019 09:44 0,8 C 1,1 C 0,6 C 99 % 1026,7 hPa 0,0 l/m 0 min 0 min 58 W/m 0,0 km/h (0 Bft) 100,00 %
02.12.2019 09:46 0,8 C 1,1 C 0,6 C 99 % 1026,6 hPa 0,0 l/m 0 min 0 min 52 W/m 0,0 km/h (0 Bft) 100,00 %
02.12.2019 09:48 0,9 C 1,1 C 0,6 C 99 % 1026,7 hPa 0,0 l/m 0 min 0 min 55 W/m 0,0 km/h (0 Bft) 97,83 %
02.12.2019 09:50 0,9 C 1,1 C 0,6 C 99 % 1026,7 hPa 0,0 l/m 0 min 0 min 63 W/m 3,2 km/h (1 Bft) 100,00 %
02.12.2019 09:52 0,9 C 1,1 C 0,6 C 99 % 1026,8 hPa 0,0 l/m 0 min 0 min 56 W/m 0,0 km/h (0 Bft) 100,00 %
02.12.2019 09:54 0,9 C 1,1 C 0,6 C 99 % 1026,8 hPa 0,0 l/m 0 min 0 min 46 W/m 0,0 km/h (0 Bft) 100,00 %
02.12.2019 09:56 1,0 C 1,1 C 0,6 C 99 % 1026,8 hPa 0,0 l/m 0 min 0 min 42 W/m 0,0 km/h (0 Bft) 97,87 %
02.12.2019 09:58 1,1 C 1,1 C 0,6 C 99 % 1026,8 hPa 0,0 l/m 0 min 0 min 41 W/m 3,2 km/h (1 Bft) 97,87 %
02.12.2019 10:00 1,1 C 1,1 C 0,6 C 99 % 1026,9 hPa 0,0 l/m 0 min 0 min 50 W/m 6,4 km/h (2 Bft) 100,00 %
02.12.2019 10:02 1,2 C 1,1 C 0,6 C 99 % 1026,9 hPa 0,0 l/m 0 min 0 min 73 W/m 3,2 km/h (1 Bft) 97,87 %
02.12.2019 10:04 1,2 C 1,7 C 0,6 C 99 % 1026,9 hPa 0,0 l/m 0 min 0 min 79 W/m 3,2 km/h (1 Bft) 100,00 %
02.12.2019 10:06 1,2 C 1,7 C 1,1 C 99 % 1026,9 hPa 0,0 l/m 0 min 0 min 79 W/m 3,2 km/h (1 Bft) 97,87 %
02.12.2019 10:08 1,3 C 2,2 C 1,1 C 99 % 1026,9 hPa 0,0 l/m 0 min 0 min 91 W/m 0,0 km/h (0 Bft) 100,00 %
02.12.2019 10:10 1,3 C 2,2 C 1,1 C 99 % 1026,9 hPa 0,0 l/m 0 min 0 min 96 W/m 0,0 km/h (0 Bft) 100,00 %
02.12.2019 10:12 1,3 C 3,3 C 1,1 C 99 % 1026,9 hPa 0,0 l/m 2 min 0 min 174 W/m 6,4 km/h (2 Bft) 97,83 %
02.12.2019 10:14 1,4 C 3,9 C 1,1 C 99 % 1027,0 hPa 0,0 l/m 2 min 0 min 169 W/m 0,0 km/h (0 Bft) 100,00 %
02.12.2019 10:16 1,4 C 3,9 C 1,1 C 99 % 1027,0 hPa 0,0 l/m 2 min 0 min 120 W/m 3,2 km/h (1 Bft) 100,00 %
02.12.2019 10:18 1,5 C 3,9 C 1,1 C 99 % 1027,0 hPa 0,0 l/m 0 min 0 min 101 W/m 0,0 km/h (0 Bft) 100,00 %
02.12.2019 10:20 1,6 C 3,3 C 1,1 C 99 % 1027,1 hPa 0,0 l/m 0 min 0 min 115 W/m 6,4 km/h (2 Bft) 100,00 %
02.12.2019 10:22 1,6 C 3,3 C 1,1 C 99 % 1027,1 hPa 0,0 l/m 0 min 0 min 109 W/m 3,2 km/h (1 Bft) 100,00 %
02.12.2019 10:24 1,6 C 3,3 C 1,1 C 99 % 1027,1 hPa 0,0 l/m 0 min 0 min 101 W/m 3,2 km/h (1 Bft) 100,00 %
02.12.2019 10:26 1,6 C 3,9 C 1,1 C 99 % 1027,2 hPa 0,0 l/m 2 min 0 min 142 W/m 6,4 km/h (2 Bft) 100,00 %
02.12.2019 10:28 1,7 C 3,3 C 1,1 C 99 % 1027,2 hPa 0,0 l/m 0 min 0 min 119 W/m 0,0 km/h (0 Bft) 100,00 %
02.12.2019 10:30 1,7 C 3,9 C 1,1 C 99 % 1027,2 hPa 0,0 l/m 2 min 0 min 129 W/m 6,4 km/h (2 Bft) 100,00 %
02.12.2019 10:32 1,7 C 3,9 C 1,1 C 99 % 1027,2 hPa 0,0 l/m 0 min 0 min 116 W/m 6,4 km/h (2 Bft) 100,00 %
02.12.2019 10:34 1,8 C 3,9 C 1,1 C 99 % 1027,2 hPa 0,0 l/m 2 min 0 min 160 W/m 6,4 km/h (2 Bft) 100,00 %
02.12.2019 10:36 1,8 C 3,9 C 1,1 C 99 % 1027,2 hPa 0,0 l/m 0 min 0 min 117 W/m 0,0 km/h (0 Bft) 100,00 %
02.12.2019 10:38 1,8 C 3,3 C 1,1 C 99 % 1027,2 hPa 0,0 l/m 0 min 0 min 72 W/m 0,0 km/h (0 Bft) 100,00 %
02.12.2019 10:40 1,9 C 2,8 C 1,1 C 99 % 1027,3 hPa 0,0 l/m 0 min 0 min 69 W/m 3,2 km/h (1 Bft) 100,00 %
02.12.2019 10:42 1,9 C 3,3 C 1,1 C 99 % 1027,3 hPa 0,0 l/m 0 min 0 min 115 W/m 0,0 km/h (0 Bft) 100,00 %
02.12.2019 10:44 1,9 C 3,3 C 1,1 C 99 % 1027,4 hPa 0,0 l/m 2 min 0 min 144 W/m 6,4 km/h (2 Bft) 97,87 %
02.12.2019 10:46 1,9 C 3,9 C 1,1 C 99 % 1027,4 hPa 0,0 l/m 2 min 0 min 152 W/m 6,4 km/h (2 Bft) 100,00 %
02.12.2019 10:48 2,0 C 3,9 C 1,1 C 99 % 1027,4 hPa 0,0 l/m 2 min 0 min 138 W/m 9,7 km/h (2 Bft) 97,87 %
02.12.2019 10:50 2,0 C 3,9 C 1,7 C 99 % 1027,3 hPa 0,0 l/m 0 min 0 min 122 W/m 3,2 km/h (1 Bft) 97,87 %
02.12.2019 10:52 2,1 C 3,3 C 1,7 C 99 % 1027,3 hPa 0,0 l/m 0 min 0 min 93 W/m 6,4 km/h (2 Bft) 97,87 %
02.12.2019 10:54 2,1 C 3,3 C 1,7 C 99 % 1027,4 hPa 0,0 l/m 0 min 0 min 107 W/m 6,4 km/h (2 Bft) 97,87 %
02.12.2019 10:56 2,1 C 3,3 C 1,1 C 99 % 1027,4 hPa 0,0 l/m 0 min 0 min 88 W/m 6,4 km/h (2 Bft) 97,87 %
02.12.2019 10:58 2,1 C 3,9 C 1,7 C 99 % 1027,4 hPa 0,0 l/m 0 min 0 min 114 W/m 9,7 km/h (2 Bft) 97,83 %
02.12.2019 11:00 2,1 C 4,4 C 1,7 C 99 % 1027,4 hPa 0,0 l/m 2 min 0 min 184 W/m 9,7 km/h (2 Bft) 93,62 %
02.12.2019 11:02 2,2 C 5,6 C 1,7 C 99 % 1027,4 hPa 0,0 l/m 2 min 0 min 183 W/m 6,4 km/h (2 Bft) 97,87 %
02.12.2019 11:04 2,3 C 6,1 C 2,2 C 99 % 1027,4 hPa 0,0 l/m 2 min 0 min 232 W/m 6,4 km/h (2 Bft) 97,87 %
02.12.2019 11:06 2,3 C 6,1 C 2,8 C 99 % 1027,4 hPa 0,0 l/m 2 min 0 min 225 W/m 3,2 km/h (1 Bft) 97,87 %
02.12.2019 11:08 2,4 C 5,0 C 2,8 C 99 % 1027,4 hPa 0,0 l/m 0 min 0 min 132 W/m 6,4 km/h (2 Bft) 97,83 %
02.12.2019 11:10 2,5 C 4,4 C 2,8 C 99 % 1027,4 hPa 0,0 l/m 0 min 0 min 97 W/m 6,4 km/h (2 Bft) 97,87 %
02.12.2019 11:12 2,6 C 3,9 C 2,2 C 99 % 1027,3 hPa 0,0 l/m 0 min 0 min 95 W/m 0,0 km/h (0 Bft) 97,87 %
02.12.2019 11:14 2,6 C 3,9 C 2,8 C 99 % 1027,3 hPa 0,0 l/m 0 min 0 min 114 W/m 0,0 km/h (0 Bft) 97,87 %
02.12.2019 11:16 2,6 C 3,9 C 2,8 C 99 % 1027,3 hPa 0,0 l/m 0 min 0 min 117 W/m 6,4 km/h (2 Bft) 95,74 %
02.12.2019 11:18 2,7 C 3,9 C 2,8 C 99 % 1027,3 hPa 0,0 l/m 0 min 0 min 124 W/m 3,2 km/h (1 Bft) 93,62 %
02.12.2019 11:20 2,7 C 3,9 C 2,8 C 99 % 1027,2 hPa 0,0 l/m 0 min 0 min 130 W/m 3,2 km/h (1 Bft) 95,65 %
02.12.2019 11:22 2,8 C 3,9 C 2,8 C 99 % 1027,3 hPa 0,0 l/m 0 min 0 min 125 W/m 3,2 km/h (1 Bft) 95,74 %
02.12.2019 11:24 2,8 C 3,9 C 2,8 C 99 % 1027,3 hPa 0,0 l/m 0 min 0 min 118 W/m 6,4 km/h (2 Bft) 97,87 %
02.12.2019 11:26 2,8 C 3,9 C 2,8 C 99 % 1027,2 hPa 0,0 l/m 0 min 0 min 110 W/m 6,4 km/h (2 Bft) 93,62 %
02.12.2019 11:28 2,8 C 3,9 C 2,8 C 99 % 1027,3 hPa 0,0 l/m 0 min 0 min 108 W/m 0,0 km/h (0 Bft) 97,87 %
02.12.2019 11:30 2,9 C 3,9 C 2,8 C 99 % 1027,5 hPa 0,0 l/m 0 min 0 min 121 W/m 6,4 km/h (2 Bft) 95,74 %
02.12.2019 11:32 2,9 C 3,9 C 2,8 C 99 % 1027,5 hPa 0,0 l/m 0 min 0 min 109 W/m 3,2 km/h (1 Bft) 95,65 %
02.12.2019 11:34 2,9 C 3,9 C 2,8 C 99 % 1027,5 hPa 0,0 l/m 0 min 0 min 106 W/m 3,2 km/h (1 Bft) 97,87 %
02.12.2019 11:36 3,0 C 3,9 C 2,8 C 99 % 1027,4 hPa 0,0 l/m 0 min 0 min 120 W/m 6,4 km/h (2 Bft) 95,74 %
02.12.2019 11:38 3,1 C 3,9 C 3,3 C 99 % 1027,4 hPa 0,0 l/m 0 min 0 min 136 W/m 3,2 km/h (1 Bft) 95,74 %
02.12.2019 11:40 3,1 C 3,9 C 2,8 C 99 % 1027,4 hPa 0,0 l/m 0 min 2 min 140 W/m 6,4 km/h (2 Bft) 95,74 %
02.12.2019 11:42 3,1 C 3,9 C 2,8 C 99 % 1027,3 hPa 0,0 l/m 0 min 2 min 121 W/m 3,2 km/h (1 Bft) 91,49 %
02.12.2019 11:44 3,2 C 3,3 C 2,8 C 99 % 1027,2 hPa 0,0 l/m 0 min 2 min 95 W/m 6,4 km/h (2 Bft) 95,65 %
02.12.2019 11:46 3,2 C 3,3 C 2,2 C 99 % 1027,3 hPa 0,0 l/m 0 min 2 min 72 W/m 12,9 km/h (3 Bft) 91,49 %
02.12.2019 11:48 3,2 C 3,3 C 2,2 C 99 % 1027,2 hPa 0,0 l/m 0 min 0 min 75 W/m 12,9 km/h (3 Bft) 93,62 %
02.12.2019 11:50 3,2 C 3,3 C 2,2 C 99 % 1027,2 hPa 0,0 l/m 0 min 0 min 91 W/m 12,9 km/h (3 Bft) 95,74 %
02.12.2019 11:52 3,2 C 3,3 C 2,2 C 99 % 1027,2 hPa 0,0 l/m 0 min 0 min 117 W/m 9,7 km/h (2 Bft) 95,74 %
02.12.2019 11:54 3,2 C 3,9 C 2,8 C 99 % 1027,2 hPa 0,0 l/m 2 min 0 min 196 W/m 6,4 km/h (2 Bft) 100,00 %
02.12.2019 11:56 3,2 C 3,9 C 2,8 C 99 % 1027,2 hPa 0,0 l/m 0 min 0 min 142 W/m 6,4 km/h (2 Bft) 95,65 %
02.12.2019 11:58 3,3 C 5,0 C 2,8 C 99 % 1027,3 hPa 0,0 l/m 0 min 0 min 143 W/m 6,4 km/h (2 Bft) 97,87 %
02.12.2019 12:00 3,3 C 5,0 C 2,8 C 99 % 1027,3 hPa 0,0 l/m 2 min 0 min 291 W/m 3,2 km/h (1 Bft) 100,00 %
02.12.2019 12:02 3,3 C 5,0 C 2,8 C 99 % 1027,3 hPa 0,0 l/m 0 min 0 min 145 W/m 6,4 km/h (2 Bft) 97,87 %
02.12.2019 12:04 3,4 C 4,4 C 2,8 C 99 % 1027,2 hPa 0,0 l/m 0 min 0 min 130 W/m 3,2 km/h (1 Bft) 100,00 %
02.12.2019 12:08 3,4 C 4,4 C 3,3 C 99 % 1027,3 hPa 0,0 l/m 0 min 0 min 139 W/m 9,7 km/h (2 Bft) 96,77 %
02.12.2019 12:10 3,5 C 4,4 C 3,3 C 99 % 1027,3 hPa 0,0 l/m 0 min 0 min 108 W/m 6,4 km/h (2 Bft) 97,87 %
02.12.2019 12:12 3,5 C 3,9 C 2,8 C 99 % 1027,3 hPa 0,0 l/m 0 min 0 min 82 W/m 3,2 km/h (1 Bft) 97,87 %
02.12.2019 12:14 3,6 C 3,9 C 2,8 C 99 % 1027,3 hPa 0,0 l/m 0 min 0 min 87 W/m 9,7 km/h (2 Bft) 95,74 %
02.12.2019 12:16 3,6 C 4,4 C 3,3 C 99 % 1027,3 hPa 0,0 l/m 0 min 0 min 116 W/m 3,2 km/h (1 Bft) 97,87 %
02.12.2019 12:18 3,6 C 4,4 C 3,3 C 99 % 1027,3 hPa 0,0 l/m 0 min 0 min 139 W/m 0,0 km/h (0 Bft) 97,87 %
02.12.2019 12:20 3,6 C 5,0 C 3,3 C 99 % 1027,2 hPa 0,0 l/m 2 min 0 min 184 W/m 0,0 km/h (0 Bft) 95,65 %
02.12.2019 12:22 3,7 C 5,0 C 3,3 C 99 % 1027,3 hPa 0,0 l/m 0 min 0 min 136 W/m 0,0 km/h (0 Bft) 97,87 %
02.12.2019 12:24 3,7 C 5,6 C 3,9 C 99 % 1027,3 hPa 0,0 l/m 2 min 0 min 163 W/m 3,2 km/h (1 Bft) 95,74 %
02.12.2019 12:26 3,8 C 6,7 C 3,9 C 99 % 1027,3 hPa 0,0 l/m 2 min 0 min 302 W/m 3,2 km/h (1 Bft) 97,87 %
02.12.2019 12:28 3,8 C 6,1 C 3,9 C 99 % 1027,2 hPa 0,0 l/m 2 min 0 min 207 W/m 6,4 km/h (2 Bft) 97,87 %
02.12.2019 12:30 3,9 C 5,6 C 3,9 C 99 % 1027,2 hPa 0,0 l/m 0 min 0 min 134 W/m 6,4 km/h (2 Bft) 95,65 %
02.12.2019 12:32 3,9 C 5,0 C 3,3 C 99 % 1027,2 hPa 0,0 l/m 0 min 0 min 84 W/m 16,1 km/h (3 Bft) 97,87 %
02.12.2019 12:34 3,9 C 4,4 C 3,3 C 99 % 1027,2 hPa 0,0 l/m 0 min 0 min 71 W/m 3,2 km/h (1 Bft) 97,87 %
02.12.2019 12:36 3,9 C 4,4 C 3,3 C 99 % 1027,2 hPa 0,0 l/m 0 min 0 min 86 W/m 3,2 km/h (1 Bft) 97,87 %
02.12.2019 12:38 3,9 C 4,4 C 3,3 C 99 % 1027,2 hPa 0,0 l/m 0 min 0 min 106 W/m 3,2 km/h (1 Bft) 98,00 %
02.12.2019 12:40 4,0 C 5,0 C 3,9 C 99 % 1027,2 hPa 0,0 l/m 0 min 0 min 133 W/m 3,2 km/h (1 Bft) 97,87 %
02.12.2019 12:42 4,1 C 5,0 C 3,9 C 99 % 1027,2 hPa 0,0 l/m 0 min 0 min 132 W/m 3,2 km/h (1 Bft) 97,83 %
02.12.2019 12:44 4,1 C 5,0 C 3,9 C 99 % 1027,3 hPa 0,0 l/m 0 min 0 min 127 W/m 3,2 km/h (1 Bft) 95,74 %
02.12.2019 12:46 4,1 C 5,0 C 3,9 C 99 % 1027,3 hPa 0,0 l/m 0 min 0 min 143 W/m 3,2 km/h (1 Bft) 97,87 %
02.12.2019 12:48 4,2 C 5,0 C 3,9 C 99 % 1027,4 hPa 0,0 l/m 0 min 0 min 105 W/m 6,4 km/h (2 Bft) 97,87 %
02.12.2019 12:50 4,2 C 5,0 C 3,9 C 99 % 1027,4 hPa 0,0 l/m 0 min 0 min 90 W/m 3,2 km/h (1 Bft) 97,87 %
02.12.2019 12:52 4,2 C 5,0 C 3,9 C 99 % 1027,3 hPa 0,0 l/m 0 min 0 min 132 W/m 3,2 km/h (1 Bft) 95,74 %
02.12.2019 12:54 4,3 C 5,6 C 4,4 C 99 % 1027,3 hPa 0,0 l/m 2 min 0 min 167 W/m 3,2 km/h (1 Bft) 95,65 %
02.12.2019 12:56 4,3 C 5,6 C 4,4 C 99 % 1027,3 hPa 0,0 l/m 2 min 0 min 166 W/m 3,2 km/h (1 Bft) 95,74 %
02.12.2019 12:58 4,3 C 5,6 C 4,4 C 99 % 1027,3 hPa 0,0 l/m 2 min 0 min 213 W/m 6,4 km/h (2 Bft) 95,74 %
02.12.2019 13:00 4,4 C 5,6 C 4,4 C 99 % 1027,3 hPa 0,0 l/m 2 min 2 min 188 W/m 12,9 km/h (3 Bft) 93,62 %
02.12.2019 13:02 4,5 C 5,0 C 3,9 C 99 % 1027,3 hPa 0,0 l/m 0 min 2 min 78 W/m 6,4 km/h (2 Bft) 95,74 %
02.12.2019 13:04 4,5 C 4,4 C 3,9 C 99 % 1027,3 hPa 0,0 l/m 0 min 2 min 47 W/m 3,2 km/h (1 Bft) 95,65 %
02.12.2019 13:06 4,6 C 3,9 C 3,3 C 99 % 1027,3 hPa 0,2 l/m 0 min 2 min 43 W/m 6,4 km/h (2 Bft) 95,74 %
02.12.2019 13:08 4,6 C 3,9 C 3,3 C 99 % 1027,2 hPa 0,0 l/m 0 min 2 min 54 W/m 9,7 km/h (2 Bft) 95,74 %
02.12.2019 13:10 4,6 C 3,9 C 3,3 C 99 % 1027,2 hPa 0,0 l/m 0 min 2 min 65 W/m 6,4 km/h (2 Bft) 95,74 %
02.12.2019 13:12 4,6 C 3,9 C 3,3 C 99 % 1027,1 hPa 0,0 l/m 0 min 0 min 55 W/m 6,4 km/h (2 Bft) 95,74 %
02.12.2019 13:14 4,6 C 3,3 C 3,3 C 99 % 1027,1 hPa 0,0 l/m 0 min 0 min 41 W/m 3,2 km/h (1 Bft) 95,74 %
02.12.2019 13:16 4,6 C 3,3 C 2,8 C 99 % 1027,1 hPa 0,0 l/m 0 min 0 min 42 W/m 3,2 km/h (1 Bft) 95,65 %
02.12.2019 13:18 4,5 C 3,3 C 2,8 C 99 % 1027,1 hPa 0,0 l/m 0 min 0 min 47 W/m 6,4 km/h (2 Bft) 95,74 %
02.12.2019 13:20 4,5 C 3,9 C 2,8 C 99 % 1027,2 hPa 0,0 l/m 0 min 0 min 78 W/m 6,4 km/h (2 Bft) 97,87 %
02.12.2019 13:22 4,4 C 4,4 C 3,3 C 99 % 1027,2 hPa 0,0 l/m 0 min 0 min 144 W/m 3,2 km/h (1 Bft) 97,87 %
02.12.2019 13:24 4,4 C 5,0 C 3,3 C 99 % 1027,2 hPa 0,0 l/m 2 min 0 min 202 W/m 6,4 km/h (2 Bft) 97,87 %
02.12.2019 13:26 4,5 C 5,0 C 3,3 C 99 % 1027,2 hPa 0,0 l/m 2 min 0 min 170 W/m 3,2 km/h (1 Bft) 97,87 %
02.12.2019 13:28 4,5 C 5,0 C 3,3 C 99 % 1027,2 hPa 0,0 l/m 0 min 0 min 119 W/m 6,4 km/h (2 Bft) 97,83 %
02.12.2019 13:30 4,6 C 5,0 C 3,3 C 99 % 1027,2 hPa 0,0 l/m 0 min 0 min 99 W/m 6,4 km/h (2 Bft) 97,87 %
02.12.2019 13:32 4,6 C 4,4 C 3,3 C 99 % 1027,1 hPa 0,0 l/m 0 min 0 min 77 W/m 3,2 km/h (1 Bft) 95,74 %
02.12.2019 13:34 4,6 C 4,4 C 3,3 C 99 % 1027,2 hPa 0,0 l/m 0 min 0 min 85 W/m 6,4 km/h (2 Bft) 91,49 %
02.12.2019 13:36 4,6 C 5,0 C 3,3 C 99 % 1027,1 hPa 0,0 l/m 0 min 0 min 118 W/m 3,2 km/h (1 Bft) 95,74 %
02.12.2019 13:38 4,6 C 5,0 C 3,3 C 98 % 1027,2 hPa 0,0 l/m 0 min 0 min 115 W/m 0,0 km/h (0 Bft) 100,00 %
02.12.2019 13:40 4,6 C 5,0 C 3,3 C 98 % 1027,2 hPa 0,0 l/m 0 min 0 min 95 W/m 0,0 km/h (0 Bft) 100,00 %
02.12.2019 13:42 4,6 C 5,6 C 3,3 C 98 % 1027,1 hPa 0,0 l/m 0 min 0 min 91 W/m 3,2 km/h (1 Bft) 100,00 %
02.12.2019 13:44 4,7 C 5,0 C 3,3 C 98 % 1027,1 hPa 0,0 l/m 0 min 0 min 71 W/m 3,2 km/h (1 Bft) 100,00 %
02.12.2019 13:46 4,7 C 6,1 C 3,3 C 98 % 1027,1 hPa 0,0 l/m 0 min 0 min 120 W/m 3,2 km/h (1 Bft) 95,74 %
02.12.2019 13:48 4,7 C 6,1 C 3,3 C 98 % 1027,1 hPa 0,0 l/m 2 min 0 min 222 W/m 3,2 km/h (1 Bft) 97,87 %
02.12.2019 13:50 4,7 C 5,6 C 3,3 C 98 % 1027,2 hPa 0,0 l/m 0 min 0 min 87 W/m 3,2 km/h (1 Bft) 97,87 %
02.12.2019 13:52 4,7 C 5,6 C 3,3 C 98 % 1027,2 hPa 0,0 l/m 0 min 0 min 101 W/m 3,2 km/h (1 Bft) 97,83 %
02.12.2019 13:54 4,8 C 6,7 C 3,3 C 99 % 1027,2 hPa 0,0 l/m 2 min 0 min 183 W/m 3,2 km/h (1 Bft) 93,62 %
02.12.2019 13:56 4,8 C 7,8 C 3,3 C 99 % 1027,2 hPa 0,0 l/m 2 min 0 min 210 W/m 3,2 km/h (1 Bft) 93,62 %
02.12.2019 13:58 4,9 C 7,8 C 3,9 C 98 % 1027,2 hPa 0,0 l/m 2 min 0 min 203 W/m 6,4 km/h (2 Bft) 97,87 %
02.12.2019 14:00 4,9 C 8,3 C 3,9 C 98 % 1027,3 hPa 0,0 l/m 2 min 0 min 181 W/m 3,2 km/h (1 Bft) 97,87 %
02.12.2019 14:02 5,1 C 8,3 C 3,9 C 98 % 1027,2 hPa 0,0 l/m 2 min 0 min 198 W/m 3,2 km/h (1 Bft) 97,83 %
02.12.2019 14:04 5,1 C 8,3 C 3,9 C 99 % 1027,1 hPa 0,0 l/m 2 min 0 min 189 W/m 3,2 km/h (1 Bft) 95,74 %
02.12.2019 14:06 5,2 C 8,3 C 3,9 C 99 % 1027,1 hPa 0,0 l/m 2 min 0 min 185 W/m 3,2 km/h (1 Bft) 97,87 %
02.12.2019 14:08 5,2 C 8,3 C 3,9 C 99 % 1027,1 hPa 0,0 l/m 2 min 0 min 182 W/m 3,2 km/h (1 Bft) 95,74 %
02.12.2019 14:10 5,3 C 8,3 C 3,9 C 98 % 1027,1 hPa 0,0 l/m 2 min 0 min 200 W/m 3,2 km/h (1 Bft) 95,74 %
02.12.2019 14:12 5,3 C 8,9 C 3,9 C 98 % 1027,1 hPa 0,0 l/m 2 min 0 min 209 W/m 3,2 km/h (1 Bft) 95,74 %
02.12.2019 14:14 5,4 C 9,4 C 3,9 C 99 % 1027,0 hPa 0,0 l/m 2 min 0 min 182 W/m 6,4 km/h (2 Bft) 97,87 %
02.12.2019 14:16 5,4 C 9,4 C 3,9 C 99 % 1027,0 hPa 0,0 l/m 2 min 0 min 178 W/m 3,2 km/h (1 Bft) 97,83 %
02.12.2019 14:18 5,5 C 9,4 C 3,9 C 99 % 1027,0 hPa 0,0 l/m 2 min 0 min 180 W/m 0,0 km/h (0 Bft) 97,87 %
02.12.2019 14:20 5,6 C 9,4 C 3,9 C 98 % 1027,0 hPa 0,0 l/m 2 min 0 min 180 W/m 0,0 km/h (0 Bft) 95,74 %
02.12.2019 14:22 5,6 C 9,4 C 3,9 C 98 % 1027,0 hPa 0,0 l/m 2 min 0 min 178 W/m 6,4 km/h (2 Bft) 97,87 %
02.12.2019 14:24 5,6 C 8,9 C 3,9 C 98 % 1027,0 hPa 0,0 l/m 2 min 0 min 174 W/m 6,4 km/h (2 Bft) 95,74 %
02.12.2019 14:26 5,6 C 8,9 C 3,9 C 98 % 1027,0 hPa 0,0 l/m 2 min 0 min 176 W/m 12,9 km/h (3 Bft) 100,00 %
02.12.2019 14:28 5,7 C 8,9 C 3,9 C 98 % 1027,0 hPa 0,0 l/m 2 min 0 min 176 W/m 3,2 km/h (1 Bft) 100,00 %
02.12.2019 14:30 5,7 C 8,9 C 3,9 C 98 % 1026,9 hPa 0,0 l/m 2 min 0 min 169 W/m 3,2 km/h (1 Bft) 100,00 %
02.12.2019 14:32 5,7 C 8,3 C 3,9 C 98 % 1027,0 hPa 0,0 l/m 2 min 0 min 166 W/m 3,2 km/h (1 Bft) 97,87 %
02.12.2019 14:34 5,7 C 7,8 C 3,9 C 98 % 1026,9 hPa 0,0 l/m 2 min 0 min 169 W/m 3,2 km/h (1 Bft) 100,00 %
02.12.2019 14:36 5,7 C 6,7 C 3,9 C 98 % 1027,0 hPa 0,0 l/m 2 min 0 min 161 W/m 6,4 km/h (2 Bft) 100,00 %
02.12.2019 14:38 5,7 C 6,7 C 3,9 C 98 % 1027,0 hPa 0,0 l/m 2 min 0 min 156 W/m 6,4 km/h (2 Bft) 100,00 %
02.12.2019 14:40 5,7 C 6,1 C 3,9 C 98 % 1027,1 hPa 0,0 l/m 2 min 0 min 146 W/m 3,2 km/h (1 Bft) 97,87 %
02.12.2019 14:42 5,7 C 6,1 C 3,9 C 98 % 1027,1 hPa 0,0 l/m 0 min 0 min 99 W/m 3,2 km/h (1 Bft) 100,00 %
02.12.2019 14:44 5,8 C 6,1 C 3,9 C 98 % 1027,1 hPa 0,0 l/m 0 min 0 min 69 W/m 0,0 km/h (0 Bft) 100,00 %
02.12.2019 14:46 5,8 C 6,1 C 3,9 C 98 % 1027,2 hPa 0,0 l/m 0 min 0 min 69 W/m 6,4 km/h (2 Bft) 100,00 %
02.12.2019 14:48 5,8 C 6,1 C 3,9 C 98 % 1027,2 hPa 0,0 l/m 0 min 0 min 69 W/m 0,0 km/h (0 Bft) 100,00 %
02.12.2019 14:50 5,8 C 6,1 C 3,9 C 98 % 1027,2 hPa 0,0 l/m 0 min 0 min 66 W/m 3,2 km/h (1 Bft) 100,00 %
02.12.2019 14:52 5,8 C 6,1 C 3,9 C 98 % 1027,2 hPa 0,0 l/m 0 min 0 min 66 W/m 3,2 km/h (1 Bft) 100,00 %
02.12.2019 14:54 5,8 C 6,1 C 3,9 C 97 % 1027,2 hPa 0,0 l/m 0 min 0 min 71 W/m 3,2 km/h (1 Bft) 100,00 %
02.12.2019 14:56 5,8 C 6,1 C 3,9 C 97 % 1027,2 hPa 0,0 l/m 0 min 0 min 74 W/m 9,7 km/h (2 Bft) 100,00 %
02.12.2019 14:58 5,8 C 6,1 C 3,9 C 97 % 1027,2 hPa 0,0 l/m 0 min 0 min 71 W/m 6,4 km/h (2 Bft) 100,00 %
02.12.2019 15:00 5,8 C 6,1 C 3,9 C 97 % 1027,2 hPa 0,0 l/m 0 min 0 min 64 W/m 6,4 km/h (2 Bft) 100,00 %
02.12.2019 15:02 5,8 C 5,6 C 3,9 C 97 % 1027,2 hPa 0,0 l/m 0 min 0 min 60 W/m 6,4 km/h (2 Bft) 100,00 %
02.12.2019 15:04 5,8 C 5,6 C 3,9 C 97 % 1027,3 hPa 0,0 l/m 0 min 0 min 56 W/m 3,2 km/h (1 Bft) 100,00 %
02.12.2019 15:06 5,8 C 5,6 C 3,9 C 97 % 1027,3 hPa 0,0 l/m 0 min 0 min 52 W/m 3,2 km/h (1 Bft) 97,87 %
02.12.2019 15:08 5,8 C 5,6 C 3,9 C 97 % 1027,2 hPa 0,0 l/m 0 min 0 min 44 W/m 6,4 km/h (2 Bft) 97,87 %
02.12.2019 15:10 5,8 C 5,6 C 3,9 C 97 % 1027,2 hPa 0,0 l/m 0 min 0 min 37 W/m 9,7 km/h (2 Bft) 97,87 %
02.12.2019 15:12 5,7 C 5,6 C 3,9 C 97 % 1027,2 hPa 0,0 l/m 0 min 0 min 42 W/m 3,2 km/h (1 Bft) 97,83 %
02.12.2019 15:14 5,7 C 5,6 C 3,9 C 97 % 1027,1 hPa 0,0 l/m 0 min 0 min 47 W/m 3,2 km/h (1 Bft) 97,87 %
02.12.2019 15:16 5,7 C 5,0 C 3,9 C 97 % 1027,2 hPa 0,0 l/m 0 min 0 min 46 W/m 3,2 km/h (1 Bft) 95,74 %
02.12.2019 15:18 5,7 C 5,0 C 3,9 C 97 % 1027,2 hPa 0,0 l/m 0 min 0 min 45 W/m 6,4 km/h (2 Bft) 93,62 %
02.12.2019 15:20 5,7 C 5,0 C 3,9 C 97 % 1027,2 hPa 0,0 l/m 0 min 0 min 43 W/m 6,4 km/h (2 Bft) 95,74 %
02.12.2019 15:22 5,7 C 5,0 C 3,9 C 97 % 1027,2 hPa 0,0 l/m 0 min 0 min 43 W/m 3,2 km/h (1 Bft) 97,87 %
02.12.2019 15:24 5,7 C 5,0 C 3,9 C 97 % 1027,3 hPa 0,0 l/m 0 min 0 min 41 W/m 9,7 km/h (2 Bft) 97,83 %
02.12.2019 15:26 5,6 C 5,0 C 3,3 C 97 % 1027,2 hPa 0,0 l/m 0 min 0 min 40 W/m 0,0 km/h (0 Bft) 97,87 %
02.12.2019 15:28 5,7 C 5,0 C 3,3 C 97 % 1027,3 hPa 0,0 l/m 0 min 0 min 39 W/m 0,0 km/h (0 Bft) 97,87 %
02.12.2019 15:30 5,6 C 5,0 C 3,3 C 96 % 1027,3 hPa 0,0 l/m 0 min 0 min 38 W/m 0,0 km/h (0 Bft) 93,62 %
02.12.2019 15:32 5,6 C 5,0 C 3,3 C 96 % 1027,3 hPa 0,0 l/m 0 min 0 min 36 W/m 3,2 km/h (1 Bft) 93,62 %
02.12.2019 15:34 5,6 C 5,0 C 3,9 C 97 % 1027,3 hPa 0,0 l/m 0 min 0 min 34 W/m 6,4 km/h (2 Bft) 95,74 %
02.12.2019 15:36 5,6 C 5,0 C 3,3 C 97 % 1027,3 hPa 0,0 l/m 0 min 0 min 31 W/m 3,2 km/h (1 Bft) 93,48 %
02.12.2019 15:38 5,6 C 5,0 C 3,3 C 96 % 1027,3 hPa 0,0 l/m 0 min 0 min 31 W/m 0,0 km/h (0 Bft) 93,62 %
02.12.2019 15:40 5,6 C 5,0 C 3,3 C 96 % 1027,4 hPa 0,0 l/m 0 min 0 min 32 W/m 0,0 km/h (0 Bft) 95,74 %
02.12.2019 15:42 5,5 C 5,0 C 3,3 C 96 % 1027,4 hPa 0,0 l/m 0 min 0 min 31 W/m 0,0 km/h (0 Bft) 95,74 %
02.12.2019 15:44 5,5 C 4,4 C 3,3 C 96 % 1027,4 hPa 0,0 l/m 0 min 0 min 30 W/m 3,2 km/h (1 Bft) 95,74 %
02.12.2019 15:46 5,4 C 4,4 C 3,3 C 96 % 1027,4 hPa 0,0 l/m 0 min 0 min 29 W/m 3,2 km/h (1 Bft) 95,65 %
02.12.2019 15:48 5,4 C 4,4 C 3,3 C 96 % 1027,4 hPa 0,0 l/m 0 min 0 min 28 W/m 0,0 km/h (0 Bft) 97,87 %
02.12.2019 15:50 5,4 C 4,4 C 3,3 C 96 % 1027,4 hPa 0,0 l/m 0 min 0 min 28 W/m 0,0 km/h (0 Bft) 95,74 %
02.12.2019 15:52 5,4 C 4,4 C 3,3 C 96 % 1027,4 hPa 0,0 l/m 0 min 0 min 27 W/m 0,0 km/h (0 Bft) 91,49 %
02.12.2019 15:54 5,4 C 4,4 C 2,8 C 96 % 1027,5 hPa 0,0 l/m 0 min 0 min 25 W/m 0,0 km/h (0 Bft) 97,87 %
02.12.2019 15:56 5,4 C 4,4 C 2,8 C 96 % 1027,4 hPa 0,0 l/m 0 min 0 min 25 W/m 0,0 km/h (0 Bft) 95,74 %
02.12.2019 15:58 5,3 C 4,4 C 2,8 C 96 % 1027,4 hPa 0,0 l/m 0 min 0 min 24 W/m 0,0 km/h (0 Bft) 97,83 %
02.12.2019 16:00 5,3 C 4,4 C 2,8 C 96 % 1027,5 hPa 0,0 l/m 0 min 0 min 23 W/m 0,0 km/h (0 Bft) 91,49 %
02.12.2019 16:02 5,3 C 4,4 C 2,8 C 96 % 1027,4 hPa 0,0 l/m 0 min 0 min 20 W/m 0,0 km/h (0 Bft) 95,74 %
02.12.2019 16:04 5,3 C 4,4 C 2,8 C 96 % 1027,4 hPa 0,0 l/m 0 min 0 min 19 W/m 3,2 km/h (1 Bft) 95,74 %
02.12.2019 16:06 5,2 C 4,4 C 2,8 C 96 % 1027,5 hPa 0,0 l/m 0 min 0 min 18 W/m 0,0 km/h (0 Bft) 95,74 %
02.12.2019 16:08 5,2 C 3,9 C 2,8 C 96 % 1027,5 hPa 0,0 l/m 0 min 0 min 16 W/m 0,0 km/h (0 Bft) 97,87 %
02.12.2019 16:10 5,2 C 3,9 C 2,8 C 96 % 1027,4 hPa 0,0 l/m 0 min 0 min 16 W/m 0,0 km/h (0 Bft) 97,83 %
02.12.2019 16:12 5,2 C 3,9 C 2,8 C 96 % 1027,4 hPa 0,0 l/m 0 min 0 min 14 W/m 0,0 km/h (0 Bft) 100,00 %
02.12.2019 16:14 5,2 C 3,9 C 2,8 C 96 % 1027,3 hPa 0,0 l/m 0 min 0 min 12 W/m 0,0 km/h (0 Bft) 97,87 %
02.12.2019 16:16 5,1 C 3,9 C 2,2 C 96 % 1027,4 hPa 0,0 l/m 0 min 0 min 12 W/m 0,0 km/h (0 Bft) 97,87 %
02.12.2019 16:18 5,1 C 3,9 C 2,2 C 96 % 1027,4 hPa 0,0 l/m 0 min 0 min 11 W/m 0,0 km/h (0 Bft) 97,87 %
02.12.2019 16:20 5,1 C 3,9 C 2,2 C 96 % 1027,4 hPa 0,0 l/m 0 min 0 min 10 W/m 0,0 km/h (0 Bft) 97,87 %
02.12.2019 16:22 5,0 C 3,9 C 2,2 C 96 % 1027,4 hPa 0,0 l/m 0 min 0 min 9 W/m 3,2 km/h (1 Bft) 97,83 %
02.12.2019 16:24 4,9 C 3,3 C 2,2 C 96 % 1027,4 hPa 0,0 l/m 0 min 0 min 7 W/m 3,2 km/h (1 Bft) 97,87 %
02.12.2019 16:26 4,9 C 3,3 C 2,2 C 96 % 1027,4 hPa 0,0 l/m 0 min 0 min 7 W/m 0,0 km/h (0 Bft) 97,87 %
02.12.2019 16:28 4,9 C 3,3 C 2,2 C 96 % 1027,4 hPa 0,0 l/m 0 min 0 min 6 W/m 3,2 km/h (1 Bft) 97,87 %
02.12.2019 16:30 4,8 C 3,3 C 2,2 C 96 % 1027,5 hPa 0,0 l/m 0 min 0 min 5 W/m 3,2 km/h (1 Bft) 97,87 %
02.12.2019 16:32 4,8 C 3,3 C 2,8 C 96 % 1027,5 hPa 0,0 l/m 0 min 0 min 5 W/m 6,4 km/h (2 Bft) 97,87 %
02.12.2019 16:34 4,7 C 3,3 C 2,2 C 96 % 1027,5 hPa 0,0 l/m 0 min 0 min 2 W/m 0,0 km/h (0 Bft) 97,83 %
02.12.2019 16:36 4,7 C 3,3 C 2,2 C 96 % 1027,5 hPa 0,0 l/m 0 min 0 min 0 W/m 0,0 km/h (0 Bft) 97,87 %
02.12.2019 16:38 4,7 C 3,3 C 2,2 C 96 % 1027,6 hPa 0,0 l/m 0 min 0 min 0 W/m 3,2 km/h (1 Bft) 97,87 %
02.12.2019 16:40 4,6 C 3,3 C 2,2 C 96 % 1027,6 hPa 0,0 l/m 0 min 0 min 0 W/m 0,0 km/h (0 Bft) 97,87 %
02.12.2019 16:42 4,6 C 3,3 C 2,2 C 96 % 1027,6 hPa 0,0 l/m 0 min 0 min 0 W/m 3,2 km/h (1 Bft) 95,74 %
02.12.2019 16:44 4,6 C 3,3 C 2,2 C 96 % 1027,7 hPa 0,0 l/m 0 min 0 min 0 W/m 0,0 km/h (0 Bft) 97,87 %
02.12.2019 16:46 4,6 C 3,3 C 2,2 C 96 % 1027,6 hPa 0,0 l/m 0 min 0 min 0 W/m 0,0 km/h (0 Bft) 97,83 %
02.12.2019 16:48 4,5 C 2,8 C 2,2 C 96 % 1027,7 hPa 0,0 l/m 0 min 0 min 0 W/m 3,2 km/h (1 Bft) 97,87 %
02.12.2019 16:50 4,4 C 2,8 C 2,2 C 96 % 1027,7 hPa 0,0 l/m 0 min 0 min 0 W/m 0,0 km/h (0 Bft) 97,87 %
02.12.2019 16:52 4,4 C 2,8 C 2,2 C 96 % 1027,7 hPa 0,0 l/m 0 min 0 min 0 W/m 0,0 km/h (0 Bft) 97,87 %
02.12.2019 16:54 4,4 C 2,8 C 1,7 C 96 % 1027,7 hPa 0,0 l/m 0 min 0 min 0 W/m 0,0 km/h (0 Bft) 95,74 %
02.12.2019 16:56 4,3 C 2,8 C 1,7 C 96 % 1027,7 hPa 0,0 l/m 0 min 0 min 0 W/m 0,0 km/h (0 Bft) 97,83 %
02.12.2019 16:58 4,3 C 2,8 C 1,7 C 96 % 1027,6 hPa 0,0 l/m 0 min 0 min 0 W/m 0,0 km/h (0 Bft) 97,87 %
02.12.2019 17:00 4,3 C 2,8 C 1,7 C 96 % 1027,7 hPa 0,0 l/m 0 min 0 min 0 W/m 0,0 km/h (0 Bft) 97,87 %
02.12.2019 17:02 4,3 C 2,8 C 1,7 C 96 % 1027,7 hPa 0,0 l/m 0 min 0 min 0 W/m 0,0 km/h (0 Bft) 97,87 %
02.12.2019 17:04 4,2 C 2,8 C 1,7 C 96 % 1027,7 hPa 0,0 l/m 0 min 0 min 0 W/m 0,0 km/h (0 Bft) 97,87 %
02.12.2019 17:06 4,2 C 2,8 C 1,7 C 96 % 1027,7 hPa 0,0 l/m 0 min 0 min 0 W/m 0,0 km/h (0 Bft) 97,87 %
02.12.2019 17:08 4,2 C 2,8 C 1,7 C 96 % 1027,7 hPa 0,0 l/m 0 min 0 min 0 W/m 0,0 km/h (0 Bft) 95,65 %
02.12.2019 17:10 4,1 C 2,8 C 1,7 C 96 % 1027,8 hPa 0,0 l/m 0 min 0 min 0 W/m 0,0 km/h (0 Bft) 97,87 %
02.12.2019 17:12 4,1 C 2,8 C 1,7 C 96 % 1027,7 hPa 0,0 l/m 0 min 0 min 0 W/m 3,2 km/h (1 Bft) 95,74 %
02.12.2019 17:14 4,1 C 2,8 C 1,7 C 96 % 1027,7 hPa 0,0 l/m 0 min 0 min 0 W/m 0,0 km/h (0 Bft) 97,87 %
02.12.2019 17:16 4,1 C 2,8 C 1,1 C 96 % 1027,7 hPa 0,0 l/m 0 min 0 min 0 W/m 0,0 km/h (0 Bft) 97,87 %
02.12.2019 17:18 4,0 C 2,8 C 1,7 C 96 % 1027,7 hPa 0,0 l/m 0 min 0 min 0 W/m 0,0 km/h (0 Bft) 97,87 %
02.12.2019 17:20 4,0 C 2,8 C 1,7 C 96 % 1027,8 hPa 0,0 l/m 0 min 0 min 0 W/m 0,0 km/h (0 Bft) 100,00 %
02.12.2019 17:22 3,9 C 2,8 C 1,7 C 96 % 1027,7 hPa 0,0 l/m 0 min 0 min 0 W/m 0,0 km/h (0 Bft) 100,00 %
02.12.2019 17:24 3,9 C 2,8 C 1,7 C 96 % 1027,8 hPa 0,0 l/m 0 min 0 min 0 W/m 0,0 km/h (0 Bft) 100,00 %
02.12.2019 17:26 3,9 C 2,8 C 1,7 C 96 % 1027,8 hPa 0,0 l/m 0 min 0 min 0 W/m 3,2 km/h (1 Bft) 100,00 %
02.12.2019 17:28 3,9 C 2,8 C 1,7 C 96 % 1027,8 hPa 0,0 l/m 0 min 0 min 0 W/m 0,0 km/h (0 Bft) 100,00 %
02.12.2019 17:30 3,9 C 2,8 C 2,2 C 96 % 1027,7 hPa 0,0 l/m 0 min 0 min 0 W/m 0,0 km/h (0 Bft) 97,87 %
02.12.2019 17:32 3,9 C 2,8 C 2,2 C 96 % 1027,8 hPa 0,0 l/m 0 min 0 min 0 W/m 3,2 km/h (1 Bft) 100,00 %
02.12.2019 17:34 3,9 C 3,3 C 2,2 C 96 % 1027,8 hPa 0,0 l/m 0 min 0 min 0 W/m 0,0 km/h (0 Bft) 97,87 %
02.12.2019 17:36 3,9 C 3,3 C 2,2 C 96 % 1027,9 hPa 0,0 l/m 0 min 0 min 0 W/m 0,0 km/h (0 Bft) 95,74 %
02.12.2019 17:38 3,9 C 3,3 C 2,2 C 96 % 1027,9 hPa 0,0 l/m 0 min 0 min 0 W/m 3,2 km/h (1 Bft) 97,87 %
02.12.2019 17:40 3,9 C 3,3 C 2,2 C 96 % 1027,8 hPa 0,0 l/m 0 min 0 min 0 W/m 3,2 km/h (1 Bft) 100,00 %
02.12.2019 17:42 3,9 C 3,3 C 2,2 C 96 % 1027,8 hPa 0,0 l/m 0 min 0 min 0 W/m 3,2 km/h (1 Bft) 97,83 %
02.12.2019 17:44 4,0 C 3,3 C 2,8 C 96 % 1027,8 hPa 0,0 l/m 0 min 0 min 0 W/m 3,2 km/h (1 Bft) 95,74 %
02.12.2019 17:46 4,0 C 3,3 C 2,8 C 97 % 1027,8 hPa 0,0 l/m 0 min 0 min 0 W/m 0,0 km/h (0 Bft) 97,87 %
02.12.2019 17:48 4,0 C 3,3 C 2,8 C 97 % 1027,8 hPa 0,0 l/m 0 min 0 min 0 W/m 3,2 km/h (1 Bft) 97,87 %
02.12.2019 17:50 4,1 C 3,3 C 2,8 C 97 % 1027,8 hPa 0,0 l/m 0 min 0 min 0 W/m 3,2 km/h (1 Bft) 97,87 %
02.12.2019 17:52 4,1 C 3,3 C 2,8 C 97 % 1027,7 hPa 0,0 l/m 0 min 0 min 0 W/m 3,2 km/h (1 Bft) 97,87 %
02.12.2019 17:54 4,1 C 3,3 C 2,8 C 97 % 1027,7 hPa 0,0 l/m 0 min 0 min 0 W/m 0,0 km/h (0 Bft) 95,65 %
02.12.2019 17:56 4,1 C 3,3 C 2,8 C 97 % 1027,8 hPa 0,0 l/m 0 min 0 min 0 W/m 3,2 km/h (1 Bft) 91,49 %
02.12.2019 17:58 4,1 C 3,3 C 2,8 C 97 % 1027,7 hPa 0,0 l/m 0 min 0 min 0 W/m 0,0 km/h (0 Bft) 93,62 %
02.12.2019 18:00 4,1 C 3,3 C 2,8 C 97 % 1027,8 hPa 0,0 l/m 0 min 0 min 0 W/m 3,2 km/h (1 Bft) 93,62 %
02.12.2019 18:02 4,1 C 3,3 C 2,8 C 97 % 1027,7 hPa 0,0 l/m 0 min 0 min 0 W/m 3,2 km/h (1 Bft) 95,74 %
02.12.2019 18:04 4,1 C 3,3 C 2,8 C 97 % 1027,7 hPa 0,0 l/m 0 min 0 min 0 W/m 3,2 km/h (1 Bft) 95,74 %
02.12.2019 18:08 4,2 C 3,9 C 2,8 C 97 % 1027,8 hPa 0,0 l/m 0 min 0 min 0 W/m 9,7 km/h (2 Bft) 94,68 %
02.12.2019 18:10 4,2 C 3,9 C 2,8 C 97 % 1027,7 hPa 0,0 l/m 0 min 0 min 0 W/m 9,7 km/h (2 Bft) 95,74 %
02.12.2019 18:12 4,2 C 3,9 C 2,8 C 97 % 1027,8 hPa 0,0 l/m 0 min 0 min 0 W/m 3,2 km/h (1 Bft) 93,62 %
02.12.2019 18:14 4,2 C 3,3 C 2,8 C 97 % 1027,8 hPa 0,0 l/m 0 min 0 min 0 W/m 3,2 km/h (1 Bft) 93,62 %
02.12.2019 18:16 4,2 C 3,3 C 2,8 C 97 % 1027,8 hPa 0,0 l/m 0 min 0 min 0 W/m 3,2 km/h (1 Bft) 95,74 %
02.12.2019 18:18 4,3 C 3,3 C 2,8 C 97 % 1027,8 hPa 0,0 l/m 0 min 0 min 0 W/m 6,4 km/h (2 Bft) 95,65 %
02.12.2019 18:20 4,3 C 3,9 C 2,8 C 97 % 1027,9 hPa 0,0 l/m 0 min 0 min 0 W/m 3,2 km/h (1 Bft) 95,74 %
02.12.2019 18:22 4,3 C 3,9 C 2,8 C 97 % 1027,9 hPa 0,0 l/m 0 min 0 min 0 W/m 3,2 km/h (1 Bft) 95,74 %
02.12.2019 18:24 4,3 C 3,9 C 2,8 C 97 % 1027,9 hPa 0,0 l/m 0 min 0 min 0 W/m 3,2 km/h (1 Bft) 95,74 %
02.12.2019 18:26 4,3 C 3,9 C 2,8 C 97 % 1027,9 hPa 0,0 l/m 0 min 0 min 0 W/m 3,2 km/h (1 Bft) 95,74 %
02.12.2019 18:28 4,3 C 3,9 C 2,8 C 97 % 1027,9 hPa 0,0 l/m 0 min 0 min 0 W/m 3,2 km/h (1 Bft) 95,65 %
02.12.2019 18:30 4,3 C 3,9 C 2,8 C 97 % 1028,0 hPa 0,0 l/m 0 min 0 min 0 W/m 3,2 km/h (1 Bft) 95,74 %
02.12.2019 18:32 4,3 C 3,9 C 2,8 C 97 % 1028,1 hPa 0,0 l/m 0 min 0 min 0 W/m 3,2 km/h (1 Bft) 95,74 %
02.12.2019 18:34 4,3 C 3,9 C 2,8 C 97 % 1028,0 hPa 0,0 l/m 0 min 0 min 0 W/m 3,2 km/h (1 Bft) 97,87 %
02.12.2019 18:36 4,3 C 3,9 C 3,3 C 97 % 1028,0 hPa 0,0 l/m 0 min 0 min 0 W/m 0,0 km/h (0 Bft) 100,00 %
02.12.2019 18:38 4,3 C 3,9 C 3,3 C 97 % 1028,1 hPa 0,0 l/m 0 min 0 min 0 W/m 3,2 km/h (1 Bft) 100,00 %
02.12.2019 18:40 4,3 C 3,9 C 3,3 C 97 % 1028,1 hPa 0,0 l/m 0 min 0 min 0 W/m 3,2 km/h (1 Bft) 100,00 %
02.12.2019 18:42 4,3 C 3,9 C 3,3 C 98 % 1028,2 hPa 0,0 l/m 0 min 0 min 0 W/m 0,0 km/h (0 Bft) 97,87 %
02.12.2019 18:44 4,4 C 3,9 C 3,3 C 98 % 1028,2 hPa 0,0 l/m 0 min 0 min 0 W/m 12,9 km/h (3 Bft) 100,00 %
02.12.2019 18:46 4,3 C 3,9 C 3,3 C 98 % 1028,2 hPa 0,0 l/m 0 min 0 min 0 W/m 0,0 km/h (0 Bft) 100,00 %
02.12.2019 18:48 4,4 C 3,9 C 3,3 C 98 % 1028,2 hPa 0,0 l/m 0 min 0 min 0 W/m 0,0 km/h (0 Bft) 100,00 %
02.12.2019 18:50 4,4 C 3,9 C 3,3 C 98 % 1028,2 hPa 0,0 l/m 0 min 0 min 0 W/m 3,2 km/h (1 Bft) 97,87 %
02.12.2019 18:52 4,4 C 3,9 C 3,3 C 98 % 1028,2 hPa 0,0 l/m 0 min 0 min 0 W/m 0,0 km/h (0 Bft) 100,00 %
02.12.2019 18:54 4,4 C 3,9 C 3,3 C 98 % 1028,2 hPa 0,0 l/m 0 min 0 min 0 W/m 3,2 km/h (1 Bft) 100,00 %
02.12.2019 18:56 4,4 C 3,9 C 3,3 C 98 % 1028,2 hPa 0,0 l/m 0 min 0 min 0 W/m 0,0 km/h (0 Bft) 100,00 %
02.12.2019 18:58 4,4 C 3,9 C 3,3 C 98 % 1028,3 hPa 0,0 l/m 0 min 0 min 0 W/m 0,0 km/h (0 Bft) 100,00 %
02.12.2019 19:00 4,4 C 3,9 C 3,3 C 98 % 1028,3 hPa 0,0 l/m 0 min 0 min 0 W/m 3,2 km/h (1 Bft) 100,00 %
02.12.2019 19:02 4,4 C 3,9 C 3,3 C 98 % 1028,3 hPa 0,0 l/m 0 min 0 min 0 W/m 3,2 km/h (1 Bft) 100,00 %
02.12.2019 19:04 4,4 C 3,9 C 2,8 C 98 % 1028,3 hPa 0,0 l/m 0 min 0 min 0 W/m 3,2 km/h (1 Bft) 100,00 %
02.12.2019 19:06 4,4 C 3,9 C 2,8 C 98 % 1028,3 hPa 0,0 l/m 0 min 0 min 0 W/m 6,4 km/h (2 Bft) 100,00 %
02.12.2019 19:08 4,4 C 3,3 C 2,8 C 98 % 1028,3 hPa 0,0 l/m 0 min 0 min 0 W/m 3,2 km/h (1 Bft) 100,00 %
02.12.2019 19:10 4,4 C 3,9 C 2,8 C 98 % 1028,3 hPa 0,0 l/m 0 min 0 min 0 W/m 3,2 km/h (1 Bft) 100,00 %
02.12.2019 19:12 4,4 C 3,9 C 2,8 C 98 % 1028,3 hPa 0,0 l/m 0 min 0 min 0 W/m 3,2 km/h (1 Bft) 100,00 %
02.12.2019 19:14 4,4 C 3,3 C 2,8 C 98 % 1028,3 hPa 0,0 l/m 0 min 0 min 0 W/m 3,2 km/h (1 Bft) 100,00 %
02.12.2019 19:16 4,4 C 3,3 C 2,8 C 98 % 1028,3 hPa 0,0 l/m 0 min 0 min 0 W/m 3,2 km/h (1 Bft) 100,00 %
02.12.2019 19:18 4,3 C 3,3 C 2,8 C 98 % 1028,3 hPa 0,0 l/m 0 min 0 min 0 W/m 6,4 km/h (2 Bft) 100,00 %
02.12.2019 19:20 4,3 C 3,3 C 2,8 C 98 % 1028,3 hPa 0,0 l/m 0 min 0 min 0 W/m 3,2 km/h (1 Bft) 100,00 %
02.12.2019 19:22 4,3 C 3,3 C 2,8 C 98 % 1028,4 hPa 0,0 l/m 0 min 0 min 0 W/m 3,2 km/h (1 Bft) 100,00 %
02.12.2019 19:24 4,3 C 3,3 C 2,8 C 98 % 1028,4 hPa 0,0 l/m 0 min 0 min 0 W/m 3,2 km/h (1 Bft) 100,00 %
02.12.2019 19:26 4,3 C 3,3 C 2,8 C 98 % 1028,4 hPa 0,0 l/m 0 min 0 min 0 W/m 3,2 km/h (1 Bft) 100,00 %
02.12.2019 19:28 4,3 C 3,3 C 2,8 C 98 % 1028,4 hPa 0,0 l/m 0 min 0 min 0 W/m 6,4 km/h (2 Bft) 100,00 %
02.12.2019 19:30 4,2 C 3,3 C 2,8 C 98 % 1028,4 hPa 0,0 l/m 0 min 0 min 0 W/m 3,2 km/h (1 Bft) 100,00 %
02.12.2019 19:32 4,2 C 3,3 C 2,8 C 98 % 1028,4 hPa 0,0 l/m 0 min 0 min 0 W/m 0,0 km/h (0 Bft) 100,00 %
02.12.2019 19:34 4,2 C 3,3 C 2,2 C 98 % 1028,4 hPa 0,0 l/m 0 min 0 min 0 W/m 6,4 km/h (2 Bft) 100,00 %
02.12.2019 19:36 4,2 C 3,3 C 2,8 C 98 % 1028,4 hPa 0,0 l/m 0 min 0 min 0 W/m 0,0 km/h (0 Bft) 100,00 %
02.12.2019 19:38 4,2 C 3,3 C 2,8 C 98 % 1028,5 hPa 0,0 l/m 0 min 0 min 0 W/m 3,2 km/h (1 Bft) 100,00 %
02.12.2019 19:40 4,1 C 3,3 C 2,8 C 98 % 1028,5 hPa 0,0 l/m 0 min 0 min 0 W/m 3,2 km/h (1 Bft) 100,00 %
02.12.2019 19:42 4,2 C 3,3 C 2,8 C 98 % 1028,4 hPa 0,0 l/m 0 min 0 min 0 W/m 6,4 km/h (2 Bft) 100,00 %
02.12.2019 19:44 4,2 C 3,3 C 2,8 C 98 % 1028,4 hPa 0,0 l/m 0 min 0 min 0 W/m 3,2 km/h (1 Bft) 100,00 %
02.12.2019 19:46 4,2 C 3,3 C 2,8 C 98 % 1028,4 hPa 0,0 l/m 0 min 0 min 0 W/m 3,2 km/h (1 Bft) 100,00 %
02.12.2019 19:48 4,2 C 3,9 C 2,8 C 98 % 1028,4 hPa 0,0 l/m 0 min 0 min 0 W/m 3,2 km/h (1 Bft) 100,00 %
02.12.2019 19:50 4,2 C 3,9 C 2,8 C 98 % 1028,5 hPa 0,0 l/m 0 min 0 min 0 W/m 3,2 km/h (1 Bft) 100,00 %
02.12.2019 19:52 4,2 C 3,9 C 2,8 C 98 % 1028,5 hPa 0,0 l/m 0 min 0 min 0 W/m 0,0 km/h (0 Bft) 55,32 %
02.12.2019 19:54 4,2 C 3,9 C 2,8 C 98 % 1028,5 hPa 0,0 l/m 0 min 0 min 0 W/m 6,4 km/h (2 Bft) 95,45 %
02.12.2019 19:56 4,2 C 3,9 C 2,8 C 98 % 1028,5 hPa 0,0 l/m 0 min 0 min 0 W/m 3,2 km/h (1 Bft) 95,74 %
02.12.2019 19:58 4,2 C 3,9 C 2,8 C 98 % 1028,5 hPa 0,0 l/m 0 min 0 min 0 W/m 0,0 km/h (0 Bft) 97,87 %
02.12.2019 20:00 4,3 C 3,9 C 2,8 C 98 % 1028,5 hPa 0,0 l/m 0 min 0 min 0 W/m 0,0 km/h (0 Bft) 97,87 %
02.12.2019 20:02 4,3 C 3,9 C 2,8 C 98 % 1028,5 hPa 0,0 l/m 0 min 0 min 0 W/m 0,0 km/h (0 Bft) 97,83 %
02.12.2019 20:04 4,3 C 3,9 C 3,3 C 98 % 1028,5 hPa 0,0 l/m 0 min 0 min 0 W/m 0,0 km/h (0 Bft) 95,74 %
02.12.2019 20:06 4,3 C 3,9 C 3,3 C 98 % 1028,5 hPa 0,0 l/m 0 min 0 min 0 W/m 0,0 km/h (0 Bft) 95,74 %
02.12.2019 20:08 4,3 C 3,9 C 3,3 C 98 % 1028,6 hPa 0,0 l/m 0 min 0 min 0 W/m 3,2 km/h (1 Bft) 97,87 %
02.12.2019 20:10 4,3 C 3,9 C 3,3 C 98 % 1028,7 hPa 0,0 l/m 0 min 0 min 0 W/m 3,2 km/h (1 Bft) 95,74 %
02.12.2019 20:12 4,3 C 3,9 C 3,3 C 98 % 1028,6 hPa 0,0 l/m 0 min 0 min 0 W/m 6,4 km/h (2 Bft) 95,74 %
02.12.2019 20:14 4,3 C 3,9 C 3,3 C 98 % 1028,7 hPa 0,0 l/m 0 min 0 min 0 W/m 0,0 km/h (0 Bft) 97,83 %
02.12.2019 20:16 4,3 C 3,9 C 3,3 C 98 % 1028,6 hPa 0,0 l/m 0 min 0 min 0 W/m 3,2 km/h (1 Bft) 95,74 %
02.12.2019 20:18 4,3 C 3,9 C 3,3 C 98 % 1028,6 hPa 0,0 l/m 0 min 0 min 0 W/m 3,2 km/h (1 Bft) 97,87 %
02.12.2019 20:20 4,4 C 3,9 C 3,3 C 98 % 1028,6 hPa 0,0 l/m 0 min 0 min 0 W/m 0,0 km/h (0 Bft) 95,74 %
02.12.2019 20:22 4,4 C 3,9 C 3,3 C 98 % 1028,7 hPa 0,0 l/m 0 min 0 min 0 W/m 3,2 km/h (1 Bft) 95,74 %
02.12.2019 20:24 4,4 C 3,9 C 3,3 C 98 % 1028,7 hPa 0,0 l/m 0 min 0 min 0 W/m 0,0 km/h (0 Bft) 95,65 %
02.12.2019 20:26 4,4 C 3,9 C 3,3 C 98 % 1028,7 hPa 0,0 l/m 0 min 0 min 0 W/m 3,2 km/h (1 Bft) 93,62 %
02.12.2019 20:28 4,4 C 3,9 C 3,3 C 98 % 1028,8 hPa 0,0 l/m 0 min 0 min 0 W/m 0,0 km/h (0 Bft) 95,74 %
02.12.2019 20:30 4,4 C 3,9 C 3,3 C 98 % 1028,8 hPa 0,0 l/m 0 min 0 min 0 W/m 0,0 km/h (0 Bft) 89,36 %
02.12.2019 20:32 4,4 C 3,9 C 3,3 C 98 % 1028,8 hPa 0,0 l/m 0 min 0 min 0 W/m 3,2 km/h (1 Bft) 93,62 %
02.12.2019 20:34 4,4 C 3,9 C 3,3 C 98 % 1028,9 hPa 0,0 l/m 0 min 0 min 0 W/m 0,0 km/h (0 Bft) 93,62 %
02.12.2019 20:36 4,5 C 3,9 C 3,3 C 98 % 1028,9 hPa 0,0 l/m 0 min 0 min 0 W/m 3,2 km/h (1 Bft) 91,30 %
02.12.2019 20:38 4,4 C 3,9 C 3,3 C 98 % 1028,9 hPa 0,0 l/m 0 min 0 min 0 W/m 3,2 km/h (1 Bft) 93,62 %
02.12.2019 20:40 4,5 C 3,9 C 3,3 C 98 % 1028,9 hPa 0,0 l/m 0 min 0 min 0 W/m 6,4 km/h (2 Bft) 93,62 %
02.12.2019 20:42 4,5 C 3,9 C 3,3 C 98 % 1028,8 hPa 0,0 l/m 0 min 0 min 0 W/m 3,2 km/h (1 Bft) 93,62 %
02.12.2019 20:44 4,5 C 3,9 C 3,3 C 98 % 1028,8 hPa 0,0 l/m 0 min 0 min 0 W/m 3,2 km/h (1 Bft) 93,62 %
02.12.2019 20:46 4,6 C 3,9 C 3,3 C 98 % 1028,8 hPa 0,0 l/m 0 min 0 min 0 W/m 3,2 km/h (1 Bft) 93,62 %
02.12.2019 20:48 4,6 C 3,9 C 3,3 C 98 % 1028,8 hPa 0,0 l/m 0 min 0 min 0 W/m 3,2 km/h (1 Bft) 91,30 %
02.12.2019 20:50 4,6 C 3,9 C 3,3 C 98 % 1028,8 hPa 0,0 l/m 0 min 0 min 0 W/m 3,2 km/h (1 Bft) 95,74 %
02.12.2019 20:52 4,6 C 3,9 C 3,3 C 98 % 1028,8 hPa 0,0 l/m 0 min 0 min 0 W/m 3,2 km/h (1 Bft) 93,62 %
02.12.2019 20:54 4,6 C 3,9 C 3,3 C 98 % 1028,8 hPa 0,0 l/m 0 min 0 min 0 W/m 3,2 km/h (1 Bft) 95,74 %
02.12.2019 20:56 4,6 C 3,9 C 3,3 C 98 % 1028,8 hPa 0,0 l/m 0 min 0 min 0 W/m 0,0 km/h (0 Bft) 95,74 %
02.12.2019 20:58 4,6 C 3,9 C 3,3 C 98 % 1028,8 hPa 0,0 l/m 0 min 0 min 0 W/m 3,2 km/h (1 Bft) 95,74 %
02.12.2019 21:00 4,6 C 3,9 C 3,3 C 98 % 1028,7 hPa 0,0 l/m 0 min 0 min 0 W/m 3,2 km/h (1 Bft) 93,48 %
02.12.2019 21:02 4,6 C 3,9 C 3,3 C 98 % 1028,7 hPa 0,0 l/m 0 min 0 min 0 W/m 0,0 km/h (0 Bft) 93,62 %
02.12.2019 21:04 4,6 C 3,9 C 3,3 C 99 % 1028,6 hPa 0,0 l/m 0 min 0 min 0 W/m 0,0 km/h (0 Bft) 95,74 %
02.12.2019 21:06 4,6 C 3,9 C 2,8 C 99 % 1028,8 hPa 0,0 l/m 0 min 0 min 0 W/m 0,0 km/h (0 Bft) 93,62 %
02.12.2019 21:08 4,5 C 3,9 C 2,8 C 99 % 1028,8 hPa 0,0 l/m 0 min 0 min 0 W/m 0,0 km/h (0 Bft) 97,87 %
02.12.2019 21:10 4,5 C 3,9 C 2,8 C 99 % 1028,7 hPa 0,0 l/m 0 min 0 min 0 W/m 3,2 km/h (1 Bft) 97,83 %
02.12.2019 21:12 4,5 C 3,9 C 2,8 C 99 % 1028,8 hPa 0,0 l/m 0 min 0 min 0 W/m 0,0 km/h (0 Bft) 97,87 %
02.12.2019 21:14 4,4 C 3,9 C 3,3 C 99 % 1028,8 hPa 0,0 l/m 0 min 0 min 0 W/m 3,2 km/h (1 Bft) 97,87 %
02.12.2019 21:16 4,4 C 3,9 C 2,8 C 99 % 1028,9 hPa 0,0 l/m 0 min 0 min 0 W/m 0,0 km/h (0 Bft) 100,00 %
02.12.2019 21:18 4,4 C 3,9 C 3,3 C 99 % 1028,9 hPa 0,0 l/m 0 min 0 min 0 W/m 0,0 km/h (0 Bft) 97,87 %
02.12.2019 21:20 4,4 C 3,9 C 3,3 C 99 % 1028,9 hPa 0,0 l/m 0 min 0 min 0 W/m 0,0 km/h (0 Bft) 100,00 %
02.12.2019 21:22 4,4 C 3,9 C 3,3 C 99 % 1029,0 hPa 0,0 l/m 0 min 0 min 0 W/m 0,0 km/h (0 Bft) 100,00 %
02.12.2019 21:24 4,4 C 3,9 C 3,3 C 99 % 1029,0 hPa 0,0 l/m 0 min 0 min 0 W/m 3,2 km/h (1 Bft) 97,87 %
02.12.2019 21:26 4,4 C 3,9 C 3,3 C 99 % 1028,9 hPa 0,0 l/m 0 min 0 min 0 W/m 0,0 km/h (0 Bft) 100,00 %
02.12.2019 21:28 4,4 C 3,9 C 3,3 C 99 % 1028,9 hPa 0,0 l/m 0 min 0 min 0 W/m 0,0 km/h (0 Bft) 97,87 %
02.12.2019 21:30 4,4 C 3,9 C 3,3 C 99 % 1028,9 hPa 0,0 l/m 0 min 0 min 0 W/m 0,0 km/h (0 Bft) 100,00 %
02.12.2019 21:32 4,4 C 3,9 C 3,3 C 99 % 1028,9 hPa 0,0 l/m 0 min 0 min 0 W/m 0,0 km/h (0 Bft) 100,00 %
02.12.2019 21:34 4,4 C 3,9 C 3,3 C 99 % 1028,9 hPa 0,0 l/m 0 min 0 min 0 W/m 0,0 km/h (0 Bft) 100,00 %
02.12.2019 21:36 4,4 C 3,9 C 3,3 C 99 % 1028,9 hPa 0,0 l/m 0 min 0 min 0 W/m 0,0 km/h (0 Bft) 100,00 %
02.12.2019 21:38 4,4 C 3,9 C 3,3 C 98 % 1028,9 hPa 0,0 l/m 0 min 0 min 0 W/m 0,0 km/h (0 Bft) 100,00 %
02.12.2019 21:40 4,4 C 3,9 C 3,3 C 98 % 1029,0 hPa 0,0 l/m 0 min 0 min 0 W/m 3,2 km/h (1 Bft) 100,00 %
02.12.2019 21:42 4,4 C 3,9 C 3,3 C 98 % 1029,0 hPa 0,0 l/m 0 min 0 min 0 W/m 0,0 km/h (0 Bft) 100,00 %
02.12.2019 21:44 4,4 C 3,9 C 3,3 C 98 % 1029,0 hPa 0,0 l/m 0 min 0 min 0 W/m 0,0 km/h (0 Bft) 100,00 %
02.12.2019 21:46 4,4 C 3,9 C 3,3 C 98 % 1029,0 hPa 0,0 l/m 0 min 0 min 0 W/m 0,0 km/h (0 Bft) 100,00 %
02.12.2019 21:48 4,4 C 3,9 C 3,3 C 98 % 1029,0 hPa 0,0 l/m 0 min 0 min 0 W/m 0,0 km/h (0 Bft) 100,00 %
02.12.2019 21:50 4,5 C 3,9 C 3,3 C 99 % 1029,0 hPa 0,0 l/m 0 min 0 min 0 W/m 6,4 km/h (2 Bft) 100,00 %
02.12.2019 21:52 4,5 C 3,9 C 3,3 C 99 % 1029,0 hPa 0,0 l/m 0 min 0 min 0 W/m 3,2 km/h (1 Bft) 100,00 %
02.12.2019 21:54 4,5 C 3,9 C 3,3 C 99 % 1029,0 hPa 0,0 l/m 0 min 2 min 0 W/m 3,2 km/h (1 Bft) 100,00 %
02.12.2019 21:56 4,6 C 3,9 C 3,3 C 99 % 1029,0 hPa 0,2 l/m 0 min 2 min 0 W/m 6,4 km/h (2 Bft) 97,87 %
02.12.2019 21:58 4,6 C 3,9 C 3,3 C 99 % 1029,0 hPa 0,0 l/m 0 min 2 min 0 W/m 0,0 km/h (0 Bft) 100,00 %
02.12.2019 22:00 4,6 C 3,9 C 3,3 C 99 % 1029,0 hPa 0,0 l/m 0 min 2 min 0 W/m 6,4 km/h (2 Bft) 100,00 %
02.12.2019 22:02 4,6 C 3,9 C 3,3 C 99 % 1029,0 hPa 0,0 l/m 0 min 2 min 0 W/m 3,2 km/h (1 Bft) 100,00 %
02.12.2019 22:04 4,6 C 3,9 C 3,3 C 99 % 1028,9 hPa 0,0 l/m 0 min 2 min 0 W/m 9,7 km/h (2 Bft) 97,87 %
02.12.2019 22:06 4,6 C 3,9 C 3,3 C 99 % 1029,0 hPa 0,0 l/m 0 min 0 min 0 W/m 3,2 km/h (1 Bft) 74,47 %
02.12.2019 22:08 4,6 C 3,9 C 3,3 C 99 % 1029,0 hPa 0,0 l/m 0 min 0 min 0 W/m 3,2 km/h (1 Bft) 82,61 %
02.12.2019 22:10 4,7 C 3,9 C 3,3 C 99 % 1029,0 hPa 0,0 l/m 0 min 0 min 0 W/m 0,0 km/h (0 Bft) 100,00 %
02.12.2019 22:12 4,7 C 3,9 C 3,3 C 99 % 1029,0 hPa 0,0 l/m 0 min 0 min 0 W/m 0,0 km/h (0 Bft) 100,00 %
02.12.2019 22:14 4,7 C 3,9 C 3,3 C 99 % 1029,0 hPa 0,0 l/m 0 min 0 min 0 W/m 0,0 km/h (0 Bft) 100,00 %
02.12.2019 22:16 4,7 C 3,9 C 3,3 C 99 % 1029,0 hPa 0,0 l/m 0 min 0 min 0 W/m 0,0 km/h (0 Bft) 100,00 %
02.12.2019 22:18 4,7 C 3,9 C 3,3 C 99 % 1029,0 hPa 0,0 l/m 0 min 0 min 0 W/m 0,0 km/h (0 Bft) 100,00 %
02.12.2019 22:20 4,7 C 3,9 C 3,3 C 99 % 1029,1 hPa 0,0 l/m 0 min 0 min 0 W/m 0,0 km/h (0 Bft) 100,00 %
02.12.2019 22:22 4,7 C 3,9 C 3,3 C 99 % 1029,0 hPa 0,0 l/m 0 min 0 min 0 W/m 0,0 km/h (0 Bft) 100,00 %
02.12.2019 22:24 4,7 C 3,9 C 3,3 C 99 % 1029,0 hPa 0,0 l/m 0 min 0 min 0 W/m 0,0 km/h (0 Bft) 100,00 %
02.12.2019 22:26 4,7 C 3,9 C 3,3 C 99 % 1029,0 hPa 0,0 l/m 0 min 0 min 0 W/m 3,2 km/h (1 Bft) 100,00 %
02.12.2019 22:28 4,7 C 3,9 C 3,3 C 99 % 1029,0 hPa 0,0 l/m 0 min 0 min 0 W/m 3,2 km/h (1 Bft) 100,00 %
02.12.2019 22:30 4,7 C 3,9 C 3,3 C 99 % 1029,0 hPa 0,0 l/m 0 min 0 min 0 W/m 0,0 km/h (0 Bft) 100,00 %
02.12.2019 22:32 4,7 C 3,9 C 3,3 C 99 % 1029,0 hPa 0,0 l/m 0 min 0 min 0 W/m 3,2 km/h (1 Bft) 97,83 %
02.12.2019 22:34 4,7 C 3,9 C 3,3 C 99 % 1029,0 hPa 0,0 l/m 0 min 0 min 0 W/m 0,0 km/h (0 Bft) 100,00 %
02.12.2019 22:36 4,7 C 3,9 C 3,3 C 99 % 1029,1 hPa 0,0 l/m 0 min 0 min 0 W/m 0,0 km/h (0 Bft) 97,87 %
02.12.2019 22:38 4,7 C 3,9 C 3,3 C 99 % 1029,1 hPa 0,0 l/m 0 min 0 min 0 W/m 0,0 km/h (0 Bft) 100,00 %
02.12.2019 22:40 4,7 C 3,9 C 3,3 C 99 % 1029,1 hPa 0,0 l/m 0 min 2 min 0 W/m 3,2 km/h (1 Bft) 100,00 %
02.12.2019 22:42 4,7 C 3,9 C 3,3 C 99 % 1029,2 hPa 0,0 l/m 0 min 2 min 0 W/m 0,0 km/h (0 Bft) 100,00 %
02.12.2019 22:44 4,7 C 3,9 C 3,3 C 99 % 1029,2 hPa 0,0 l/m 0 min 0 min 0 W/m 0,0 km/h (0 Bft) 100,00 %
02.12.2019 22:46 4,7 C 3,9 C 3,3 C 99 % 1029,2 hPa 0,0 l/m 0 min 0 min 0 W/m 0,0 km/h (0 Bft) 100,00 %
02.12.2019 22:48 4,7 C 3,9 C 3,3 C 99 % 1029,2 hPa 0,0 l/m 0 min 2 min 0 W/m 0,0 km/h (0 Bft) 100,00 %
02.12.2019 22:50 4,7 C 3,9 C 3,3 C 99 % 1029,2 hPa 0,0 l/m 0 min 2 min 0 W/m 0,0 km/h (0 Bft) 97,87 %
02.12.2019 22:52 4,7 C 3,9 C 3,3 C 99 % 1029,2 hPa 0,0 l/m 0 min 0 min 0 W/m 0,0 km/h (0 Bft) 100,00 %
02.12.2019 22:54 4,7 C 3,9 C 3,3 C 99 % 1029,2 hPa 0,0 l/m 0 min 0 min 0 W/m 0,0 km/h (0 Bft) 100,00 %
02.12.2019 22:56 4,7 C 3,9 C 3,3 C 99 % 1029,1 hPa 0,0 l/m 0 min 0 min 0 W/m 0,0 km/h (0 Bft) 100,00 %
02.12.2019 22:58 4,7 C 3,9 C 3,3 C 99 % 1029,2 hPa 0,0 l/m 0 min 0 min 0 W/m 0,0 km/h (0 Bft) 100,00 %
02.12.2019 23:00 4,7 C 3,9 C 3,3 C 99 % 1029,2 hPa 0,0 l/m 0 min 0 min 0 W/m 0,0 km/h (0 Bft) 97,87 %
02.12.2019 23:02 4,7 C 3,9 C 3,3 C 99 % 1029,2 hPa 0,0 l/m 0 min 0 min 0 W/m 3,2 km/h (1 Bft) 97,87 %
02.12.2019 23:04 4,7 C 3,9 C 3,3 C 99 % 1029,2 hPa 0,0 l/m 0 min 0 min 0 W/m 0,0 km/h (0 Bft) 97,87 %
02.12.2019 23:06 4,7 C 3,9 C 3,3 C 99 % 1029,2 hPa 0,0 l/m 0 min 0 min 0 W/m 6,4 km/h (2 Bft) 97,83 %
02.12.2019 23:08 4,7 C 3,9 C 3,3 C 99 % 1029,2 hPa 0,0 l/m 0 min 0 min 0 W/m 0,0 km/h (0 Bft) 93,62 %
02.12.2019 23:10 4,7 C 3,9 C 3,3 C 99 % 1029,1 hPa 0,0 l/m 0 min 0 min 0 W/m 0,0 km/h (0 Bft) 95,74 %
02.12.2019 23:12 4,7 C 3,9 C 3,3 C 99 % 1029,1 hPa 0,0 l/m 0 min 0 min 0 W/m 0,0 km/h (0 Bft) 93,62 %
02.12.2019 23:14 4,7 C 3,9 C 3,3 C 99 % 1029,2 hPa 0,0 l/m 0 min 0 min 0 W/m 0,0 km/h (0 Bft) 95,74 %
02.12.2019 23:16 4,7 C 3,9 C 3,3 C 99 % 1029,1 hPa 0,0 l/m 0 min 0 min 0 W/m 0,0 km/h (0 Bft) 93,62 %
02.12.2019 23:18 4,7 C 3,9 C 3,3 C 99 % 1029,2 hPa 0,0 l/m 0 min 0 min 0 W/m 0,0 km/h (0 Bft) 93,48 %
02.12.2019 23:20 4,7 C 3,9 C 3,3 C 99 % 1029,1 hPa 0,0 l/m 0 min 0 min 0 W/m 0,0 km/h (0 Bft) 93,62 %
02.12.2019 23:22 4,7 C 3,9 C 3,3 C 99 % 1029,2 hPa 0,0 l/m 0 min 0 min 0 W/m 3,2 km/h (1 Bft) 93,62 %
02.12.2019 23:24 4,8 C 3,9 C 3,3 C 99 % 1029,2 hPa 0,0 l/m 0 min 0 min 0 W/m 0,0 km/h (0 Bft) 91,49 %
02.12.2019 23:26 4,8 C 3,9 C 3,3 C 99 % 1029,2 hPa 0,0 l/m 0 min 0 min 0 W/m 0,0 km/h (0 Bft) 93,62 %
02.12.2019 23:28 4,8 C 3,9 C 3,3 C 99 % 1029,3 hPa 0,0 l/m 0 min 0 min 0 W/m 0,0 km/h (0 Bft) 93,62 %
02.12.2019 23:30 4,8 C 3,9 C 3,3 C 99 % 1029,3 hPa 0,0 l/m 0 min 0 min 0 W/m 0,0 km/h (0 Bft) 93,48 %
02.12.2019 23:32 4,8 C 3,9 C 3,3 C 99 % 1029,3 hPa 0,0 l/m 0 min 0 min 0 W/m 0,0 km/h (0 Bft) 93,62 %
02.12.2019 23:34 4,8 C 3,9 C 3,3 C 99 % 1029,3 hPa 0,0 l/m 0 min 0 min 0 W/m 3,2 km/h (1 Bft) 93,62 %
02.12.2019 23:36 4,8 C 3,9 C 3,3 C 99 % 1029,4 hPa 0,0 l/m 0 min 0 min 0 W/m 0,0 km/h (0 Bft) 93,62 %
02.12.2019 23:38 4,8 C 3,9 C 3,3 C 99 % 1029,4 hPa 0,0 l/m 0 min 0 min 0 W/m 0,0 km/h (0 Bft) 93,62 %
02.12.2019 23:40 4,8 C 3,9 C 3,3 C 99 % 1029,3 hPa 0,0 l/m 0 min 0 min 0 W/m 0,0 km/h (0 Bft) 91,49 %
02.12.2019 23:42 4,8 C 3,9 C 3,3 C 99 % 1029,3 hPa 0,0 l/m 0 min 0 min 0 W/m 0,0 km/h (0 Bft) 93,48 %
02.12.2019 23:44 4,8 C 3,9 C 3,3 C 99 % 1029,3 hPa 0,0 l/m 0 min 0 min 0 W/m 0,0 km/h (0 Bft) 93,62 %
02.12.2019 23:46 4,8 C 3,9 C 3,3 C 99 % 1029,3 hPa 0,0 l/m 0 min 0 min 0 W/m 3,2 km/h (1 Bft) 93,62 %
02.12.2019 23:48 4,8 C 3,9 C 3,3 C 99 % 1029,3 hPa 0,0 l/m 0 min 0 min 0 W/m 0,0 km/h (0 Bft) 93,62 %
02.12.2019 23:50 4,8 C 3,9 C 3,3 C 99 % 1029,3 hPa 0,0 l/m 0 min 0 min 0 W/m 0,0 km/h (0 Bft) 95,74 %
02.12.2019 23:52 4,8 C 3,9 C 3,3 C 99 % 1029,3 hPa 0,0 l/m 0 min 0 min 0 W/m 0,0 km/h (0 Bft) 95,74 %
02.12.2019 23:54 4,8 C 3,9 C 3,3 C 99 % 1029,3 hPa 0,0 l/m 0 min 0 min 0 W/m 0,0 km/h (0 Bft) 97,83 %
02.12.2019 23:56 4,8 C 3,9 C 3,3 C 99 % 1029,3 hPa 0,0 l/m 0 min 0 min 0 W/m 3,2 km/h (1 Bft) 95,74 %
02.12.2019 23:58 4,8 C 3,9 C 3,3 C 99 % 1029,3 hPa 0,0 l/m 0 min 0 min 0 W/m 0,0 km/h (0 Bft) 97,87 %
_ Min-Zeit 04:46 04:06 03:58 00:00 00:07 - - - - 00:00 02:46
Minimum _ -1,0 C -2,2 C -2,8 C 95 % 1023,4 hPa - - - - 0,0 km/h (0 Bft) 51,22 %
_ Max-Zeit 14:44 14:14 12:54 08:42 23:36 13:06 09:40 11:40 12:26 12:32 00:00
Maximum _ 5,8 C 9,4 C 4,4 C 99 % 1029,4 hPa 0,2 l/m 2 min 2 min 302 W/m 16,1 km/h
NO (3 Bft)
100,00 %
Durchschnitt _ 2,5 C 2,2 C 1,2 C 98 % 1026,7 hPa #0,4 l/m #1:44 h #40 min. 88 W/m 2,2 km/h (1 Bft) 96,99 %
© 2019 W. Hausmann